<?xml version="1.0" encoding="UTF-8" standalone="no" ?>
<gpx xmlns="http://www.topografix.com/GPX/1/1" xmlns:xsi="http://www.w3.org/2001/XMLSchema-instance" xsi:schemaLocation="http://www.topografix.com/GPX/1/1 http://www.topografix.com/GPX/1/1/gpx.xsd" version="1.1" creator="VisuGPX - https://www.visugpx.com">
  <metadata>
    <name>Rando Pierrefeu du var</name>
  </metadata>
  <trk>
    <name><![CDATA[Rando Pierrefeu du var_1]]></name>
    <trkseg>
      <trkpt lat="43.22748" lon="6.14075">
        <ele>71</ele>
        <time>2021-07-27T09:29:26Z</time>
      </trkpt>
      <trkpt lat="43.22747" lon="6.1408">
        <ele>71.4</ele>
        <time>2021-07-27T09:29:37Z</time>
      </trkpt>
      <trkpt lat="43.22747" lon="6.14079">
        <ele>71.6</ele>
        <time>2021-07-27T09:29:40Z</time>
      </trkpt>
      <trkpt lat="43.22747" lon="6.1408">
        <ele>71.6</ele>
        <time>2021-07-27T09:29:45Z</time>
      </trkpt>
      <trkpt lat="43.22736" lon="6.14083">
        <ele>72.2</ele>
        <time>2021-07-27T09:29:55Z</time>
      </trkpt>
      <trkpt lat="43.22735" lon="6.14085">
        <ele>72.8</ele>
        <time>2021-07-27T09:29:57Z</time>
      </trkpt>
      <trkpt lat="43.22735" lon="6.14087">
        <ele>73.2</ele>
        <time>2021-07-27T09:29:59Z</time>
      </trkpt>
      <trkpt lat="43.22733" lon="6.14098">
        <ele>74.2</ele>
        <time>2021-07-27T09:30:09Z</time>
      </trkpt>
      <trkpt lat="43.22733" lon="6.14099">
        <ele>74.2</ele>
        <time>2021-07-27T09:30:10Z</time>
      </trkpt>
      <trkpt lat="43.22731" lon="6.14108">
        <ele>75.2</ele>
        <time>2021-07-27T09:30:18Z</time>
      </trkpt>
      <trkpt lat="43.2273" lon="6.14114">
        <ele>76</ele>
        <time>2021-07-27T09:30:23Z</time>
      </trkpt>
      <trkpt lat="43.2273" lon="6.14117">
        <ele>76.2</ele>
        <time>2021-07-27T09:30:25Z</time>
      </trkpt>
      <trkpt lat="43.22729" lon="6.14126">
        <ele>77.4</ele>
        <time>2021-07-27T09:30:31Z</time>
      </trkpt>
      <trkpt lat="43.22727" lon="6.1413">
        <ele>77.8</ele>
        <time>2021-07-27T09:30:35Z</time>
      </trkpt>
      <trkpt lat="43.22726" lon="6.1413">
        <ele>78.4</ele>
        <time>2021-07-27T09:30:38Z</time>
      </trkpt>
      <trkpt lat="43.22726" lon="6.1413">
        <ele>78.4</ele>
        <time>2021-07-27T09:30:41Z</time>
      </trkpt>
      <trkpt lat="43.22725" lon="6.14129">
        <ele>78.2</ele>
        <time>2021-07-27T09:30:44Z</time>
      </trkpt>
      <trkpt lat="43.22725" lon="6.14129">
        <ele>78.4</ele>
        <time>2021-07-27T09:30:47Z</time>
      </trkpt>
      <trkpt lat="43.22724" lon="6.14127">
        <ele>79.2</ele>
        <time>2021-07-27T09:30:56Z</time>
      </trkpt>
      <trkpt lat="43.22724" lon="6.14125">
        <ele>79.6</ele>
        <time>2021-07-27T09:30:58Z</time>
      </trkpt>
      <trkpt lat="43.22722" lon="6.14115">
        <ele>80.2</ele>
        <time>2021-07-27T09:31:06Z</time>
      </trkpt>
      <trkpt lat="43.22722" lon="6.14094">
        <ele>80.2</ele>
        <time>2021-07-27T09:31:19Z</time>
      </trkpt>
      <trkpt lat="43.22727" lon="6.14079">
        <ele>80</ele>
        <time>2021-07-27T09:31:32Z</time>
      </trkpt>
      <trkpt lat="43.22737" lon="6.1407">
        <ele>78.8</ele>
        <time>2021-07-27T09:31:43Z</time>
      </trkpt>
      <trkpt lat="43.22737" lon="6.14069">
        <ele>78.6</ele>
        <time>2021-07-27T09:31:44Z</time>
      </trkpt>
      <trkpt lat="43.22738" lon="6.14067">
        <ele>78.4</ele>
        <time>2021-07-27T09:31:48Z</time>
      </trkpt>
      <trkpt lat="43.22738" lon="6.14067">
        <ele>78.4</ele>
        <time>2021-07-27T09:31:51Z</time>
      </trkpt>
      <trkpt lat="43.22738" lon="6.14067">
        <ele>78.4</ele>
        <time>2021-07-27T09:31:52Z</time>
      </trkpt>
      <trkpt lat="43.22736" lon="6.1406">
        <ele>78.4</ele>
        <time>2021-07-27T09:32:02Z</time>
      </trkpt>
      <trkpt lat="43.22734" lon="6.14051">
        <ele>78.4</ele>
        <time>2021-07-27T09:32:15Z</time>
      </trkpt>
      <trkpt lat="43.22728" lon="6.14042">
        <ele>78.4</ele>
        <time>2021-07-27T09:32:28Z</time>
      </trkpt>
      <trkpt lat="43.22721" lon="6.14031">
        <ele>78.4</ele>
        <time>2021-07-27T09:32:41Z</time>
      </trkpt>
      <trkpt lat="43.22721" lon="6.14026">
        <ele>78.4</ele>
        <time>2021-07-27T09:32:45Z</time>
      </trkpt>
      <trkpt lat="43.22719" lon="6.14023">
        <ele>78.4</ele>
        <time>2021-07-27T09:32:48Z</time>
      </trkpt>
      <trkpt lat="43.22718" lon="6.1402">
        <ele>78.4</ele>
        <time>2021-07-27T09:32:50Z</time>
      </trkpt>
      <trkpt lat="43.22718" lon="6.14017">
        <ele>78.4</ele>
        <time>2021-07-27T09:32:52Z</time>
      </trkpt>
      <trkpt lat="43.22716" lon="6.14013">
        <ele>78.8</ele>
        <time>2021-07-27T09:32:56Z</time>
      </trkpt>
      <trkpt lat="43.22715" lon="6.14009">
        <ele>79</ele>
        <time>2021-07-27T09:32:59Z</time>
      </trkpt>
      <trkpt lat="43.22716" lon="6.14002">
        <ele>79</ele>
        <time>2021-07-27T09:33:04Z</time>
      </trkpt>
      <trkpt lat="43.22714" lon="6.13996">
        <ele>79</ele>
        <time>2021-07-27T09:33:07Z</time>
      </trkpt>
      <trkpt lat="43.22713" lon="6.13994">
        <ele>78.8</ele>
        <time>2021-07-27T09:33:09Z</time>
      </trkpt>
      <trkpt lat="43.22713" lon="6.13991">
        <ele>78.6</ele>
        <time>2021-07-27T09:33:11Z</time>
      </trkpt>
      <trkpt lat="43.22713" lon="6.13979">
        <ele>78</ele>
        <time>2021-07-27T09:33:22Z</time>
      </trkpt>
      <trkpt lat="43.22713" lon="6.13978">
        <ele>78</ele>
        <time>2021-07-27T09:33:25Z</time>
      </trkpt>
      <trkpt lat="43.22713" lon="6.13977">
        <ele>78</ele>
        <time>2021-07-27T09:33:28Z</time>
      </trkpt>
      <trkpt lat="43.22711" lon="6.13974">
        <ele>78</ele>
        <time>2021-07-27T09:33:32Z</time>
      </trkpt>
      <trkpt lat="43.22713" lon="6.13977">
        <ele>78</ele>
        <time>2021-07-27T09:33:42Z</time>
      </trkpt>
      <trkpt lat="43.22715" lon="6.13994">
        <ele>78.6</ele>
        <time>2021-07-27T09:33:55Z</time>
      </trkpt>
      <trkpt lat="43.22717" lon="6.14008">
        <ele>78.8</ele>
        <time>2021-07-27T09:34:06Z</time>
      </trkpt>
      <trkpt lat="43.22718" lon="6.14026">
        <ele>78.4</ele>
        <time>2021-07-27T09:34:21Z</time>
      </trkpt>
      <trkpt lat="43.22724" lon="6.14039">
        <ele>78.2</ele>
        <time>2021-07-27T09:34:34Z</time>
      </trkpt>
      <trkpt lat="43.22725" lon="6.14041">
        <ele>77.8</ele>
        <time>2021-07-27T09:34:37Z</time>
      </trkpt>
      <trkpt lat="43.22727" lon="6.14043">
        <ele>77.6</ele>
        <time>2021-07-27T09:34:39Z</time>
      </trkpt>
      <trkpt lat="43.22727" lon="6.14043">
        <ele>77.4</ele>
        <time>2021-07-27T09:34:40Z</time>
      </trkpt>
      <trkpt lat="43.22729" lon="6.14046">
        <ele>76.6</ele>
        <time>2021-07-27T09:34:44Z</time>
      </trkpt>
      <trkpt lat="43.22731" lon="6.14047">
        <ele>76.4</ele>
        <time>2021-07-27T09:34:45Z</time>
      </trkpt>
      <trkpt lat="43.22731" lon="6.14049">
        <ele>76.4</ele>
        <time>2021-07-27T09:34:46Z</time>
      </trkpt>
      <trkpt lat="43.22735" lon="6.14058">
        <ele>75.2</ele>
        <time>2021-07-27T09:34:54Z</time>
      </trkpt>
      <trkpt lat="43.22736" lon="6.14063">
        <ele>74.8</ele>
        <time>2021-07-27T09:34:58Z</time>
      </trkpt>
      <trkpt lat="43.22736" lon="6.14067">
        <ele>74.8</ele>
        <time>2021-07-27T09:35:02Z</time>
      </trkpt>
      <trkpt lat="43.22735" lon="6.14071">
        <ele>75</ele>
        <time>2021-07-27T09:35:06Z</time>
      </trkpt>
      <trkpt lat="43.22734" lon="6.14072">
        <ele>75.2</ele>
        <time>2021-07-27T09:35:07Z</time>
      </trkpt>
      <trkpt lat="43.22733" lon="6.14072">
        <ele>75.2</ele>
        <time>2021-07-27T09:35:08Z</time>
      </trkpt>
      <trkpt lat="43.22733" lon="6.14073">
        <ele>75.2</ele>
        <time>2021-07-27T09:35:09Z</time>
      </trkpt>
      <trkpt lat="43.22729" lon="6.14077">
        <ele>75.8</ele>
        <time>2021-07-27T09:35:13Z</time>
      </trkpt>
      <trkpt lat="43.22728" lon="6.14081">
        <ele>76.4</ele>
        <time>2021-07-27T09:35:16Z</time>
      </trkpt>
      <trkpt lat="43.22726" lon="6.14085">
        <ele>76.6</ele>
        <time>2021-07-27T09:35:19Z</time>
      </trkpt>
      <trkpt lat="43.22725" lon="6.14099">
        <ele>76.2</ele>
        <time>2021-07-27T09:35:30Z</time>
      </trkpt>
      <trkpt lat="43.22725" lon="6.14116">
        <ele>76.8</ele>
        <time>2021-07-27T09:35:42Z</time>
      </trkpt>
      <trkpt lat="43.22725" lon="6.14127">
        <ele>76.6</ele>
        <time>2021-07-27T09:35:51Z</time>
      </trkpt>
      <trkpt lat="43.22725" lon="6.14129">
        <ele>76.4</ele>
        <time>2021-07-27T09:35:54Z</time>
      </trkpt>
      <trkpt lat="43.22725" lon="6.14129">
        <ele>76.4</ele>
        <time>2021-07-27T09:35:55Z</time>
      </trkpt>
      <trkpt lat="43.22726" lon="6.1413">
        <ele>75.2</ele>
        <time>2021-07-27T09:36:00Z</time>
      </trkpt>
      <trkpt lat="43.22727" lon="6.14131">
        <ele>75</ele>
        <time>2021-07-27T09:36:07Z</time>
      </trkpt>
      <trkpt lat="43.22729" lon="6.14139">
        <ele>75</ele>
        <time>2021-07-27T09:36:15Z</time>
      </trkpt>
      <trkpt lat="43.22729" lon="6.14152">
        <ele>76.2</ele>
        <time>2021-07-27T09:36:24Z</time>
      </trkpt>
      <trkpt lat="43.22729" lon="6.14159">
        <ele>76.6</ele>
        <time>2021-07-27T09:36:30Z</time>
      </trkpt>
      <trkpt lat="43.22732" lon="6.14177">
        <ele>77.2</ele>
        <time>2021-07-27T09:36:41Z</time>
      </trkpt>
      <trkpt lat="43.22732" lon="6.1418">
        <ele>77.4</ele>
        <time>2021-07-27T09:36:43Z</time>
      </trkpt>
      <trkpt lat="43.2273" lon="6.14196">
        <ele>77.4</ele>
        <time>2021-07-27T09:36:55Z</time>
      </trkpt>
      <trkpt lat="43.22725" lon="6.14209">
        <ele>77.8</ele>
        <time>2021-07-27T09:37:08Z</time>
      </trkpt>
      <trkpt lat="43.22726" lon="6.1421">
        <ele>77.8</ele>
        <time>2021-07-27T09:37:09Z</time>
      </trkpt>
      <trkpt lat="43.22725" lon="6.1421">
        <ele>78</ele>
        <time>2021-07-27T09:37:11Z</time>
      </trkpt>
      <trkpt lat="43.22722" lon="6.14211">
        <ele>78.2</ele>
        <time>2021-07-27T09:37:17Z</time>
      </trkpt>
      <trkpt lat="43.22722" lon="6.14211">
        <ele>78.4</ele>
        <time>2021-07-27T09:37:18Z</time>
      </trkpt>
      <trkpt lat="43.2272" lon="6.1421">
        <ele>79.4</ele>
        <time>2021-07-27T09:37:21Z</time>
      </trkpt>
      <trkpt lat="43.22716" lon="6.14208">
        <ele>80.4</ele>
        <time>2021-07-27T09:37:26Z</time>
      </trkpt>
      <trkpt lat="43.22714" lon="6.14207">
        <ele>81.2</ele>
        <time>2021-07-27T09:37:29Z</time>
      </trkpt>
      <trkpt lat="43.22711" lon="6.14207">
        <ele>81.6</ele>
        <time>2021-07-27T09:37:32Z</time>
      </trkpt>
      <trkpt lat="43.2271" lon="6.14203">
        <ele>82.8</ele>
        <time>2021-07-27T09:37:38Z</time>
      </trkpt>
      <trkpt lat="43.2271" lon="6.14201">
        <ele>83.8</ele>
        <time>2021-07-27T09:37:41Z</time>
      </trkpt>
      <trkpt lat="43.22711" lon="6.14197">
        <ele>85</ele>
        <time>2021-07-27T09:37:47Z</time>
      </trkpt>
      <trkpt lat="43.2271" lon="6.14191">
        <ele>85.4</ele>
        <time>2021-07-27T09:37:53Z</time>
      </trkpt>
      <trkpt lat="43.22711" lon="6.1419">
        <ele>85.2</ele>
        <time>2021-07-27T09:37:54Z</time>
      </trkpt>
      <trkpt lat="43.22714" lon="6.14178">
        <ele>85.6</ele>
        <time>2021-07-27T09:38:04Z</time>
      </trkpt>
      <trkpt lat="43.22714" lon="6.14171">
        <ele>86</ele>
        <time>2021-07-27T09:38:10Z</time>
      </trkpt>
      <trkpt lat="43.22713" lon="6.14162">
        <ele>86.2</ele>
        <time>2021-07-27T09:38:17Z</time>
      </trkpt>
      <trkpt lat="43.22712" lon="6.14159">
        <ele>86.4</ele>
        <time>2021-07-27T09:38:20Z</time>
      </trkpt>
      <trkpt lat="43.22708" lon="6.14146">
        <ele>86.8</ele>
        <time>2021-07-27T09:38:29Z</time>
      </trkpt>
      <trkpt lat="43.22707" lon="6.14135">
        <ele>87</ele>
        <time>2021-07-27T09:38:39Z</time>
      </trkpt>
      <trkpt lat="43.22706" lon="6.14131">
        <ele>87.2</ele>
        <time>2021-07-27T09:38:42Z</time>
      </trkpt>
      <trkpt lat="43.22704" lon="6.14112">
        <ele>87.6</ele>
        <time>2021-07-27T09:38:58Z</time>
      </trkpt>
      <trkpt lat="43.22704" lon="6.14097">
        <ele>87.8</ele>
        <time>2021-07-27T09:39:12Z</time>
      </trkpt>
      <trkpt lat="43.22704" lon="6.14096">
        <ele>87.8</ele>
        <time>2021-07-27T09:39:13Z</time>
      </trkpt>
      <trkpt lat="43.22704" lon="6.14096">
        <ele>87.8</ele>
        <time>2021-07-27T09:39:15Z</time>
      </trkpt>
      <trkpt lat="43.22704" lon="6.14094">
        <ele>88</ele>
        <time>2021-07-27T09:39:19Z</time>
      </trkpt>
      <trkpt lat="43.22702" lon="6.14089">
        <ele>88.2</ele>
        <time>2021-07-27T09:39:23Z</time>
      </trkpt>
      <trkpt lat="43.22699" lon="6.14076">
        <ele>88.6</ele>
        <time>2021-07-27T09:39:32Z</time>
      </trkpt>
      <trkpt lat="43.22698" lon="6.14064">
        <ele>89.2</ele>
        <time>2021-07-27T09:39:43Z</time>
      </trkpt>
      <trkpt lat="43.22698" lon="6.14064">
        <ele>89.2</ele>
        <time>2021-07-27T09:39:44Z</time>
      </trkpt>
      <trkpt lat="43.22698" lon="6.14064">
        <ele>89.4</ele>
        <time>2021-07-27T09:39:46Z</time>
      </trkpt>
      <trkpt lat="43.22699" lon="6.14061">
        <ele>89.4</ele>
        <time>2021-07-27T09:39:50Z</time>
      </trkpt>
      <trkpt lat="43.22698" lon="6.14055">
        <ele>89.8</ele>
        <time>2021-07-27T09:39:55Z</time>
      </trkpt>
      <trkpt lat="43.22696" lon="6.14043">
        <ele>90.2</ele>
        <time>2021-07-27T09:40:03Z</time>
      </trkpt>
      <trkpt lat="43.22694" lon="6.14038">
        <ele>90.8</ele>
        <time>2021-07-27T09:40:07Z</time>
      </trkpt>
      <trkpt lat="43.22691" lon="6.14026">
        <ele>91.4</ele>
        <time>2021-07-27T09:40:17Z</time>
      </trkpt>
      <trkpt lat="43.22688" lon="6.14018">
        <ele>91.6</ele>
        <time>2021-07-27T09:40:23Z</time>
      </trkpt>
      <trkpt lat="43.22683" lon="6.14004">
        <ele>92.4</ele>
        <time>2021-07-27T09:40:34Z</time>
      </trkpt>
      <trkpt lat="43.22682" lon="6.14001">
        <ele>92.8</ele>
        <time>2021-07-27T09:40:36Z</time>
      </trkpt>
      <trkpt lat="43.22677" lon="6.13993">
        <ele>94.2</ele>
        <time>2021-07-27T09:40:42Z</time>
      </trkpt>
      <trkpt lat="43.22672" lon="6.13986">
        <ele>93.4</ele>
        <time>2021-07-27T09:40:49Z</time>
      </trkpt>
      <trkpt lat="43.22665" lon="6.13984">
        <ele>93.4</ele>
        <time>2021-07-27T09:40:59Z</time>
      </trkpt>
      <trkpt lat="43.22663" lon="6.13986">
        <ele>93.6</ele>
        <time>2021-07-27T09:41:01Z</time>
      </trkpt>
      <trkpt lat="43.22662" lon="6.13988">
        <ele>93.8</ele>
        <time>2021-07-27T09:41:03Z</time>
      </trkpt>
      <trkpt lat="43.2266" lon="6.13993">
        <ele>94.2</ele>
        <time>2021-07-27T09:41:08Z</time>
      </trkpt>
      <trkpt lat="43.2266" lon="6.13995">
        <ele>94.4</ele>
        <time>2021-07-27T09:41:09Z</time>
      </trkpt>
      <trkpt lat="43.22654" lon="6.14">
        <ele>95.4</ele>
        <time>2021-07-27T09:41:18Z</time>
      </trkpt>
      <trkpt lat="43.22654" lon="6.14001">
        <ele>96.2</ele>
        <time>2021-07-27T09:41:19Z</time>
      </trkpt>
      <trkpt lat="43.22653" lon="6.14001">
        <ele>96.4</ele>
        <time>2021-07-27T09:41:20Z</time>
      </trkpt>
      <trkpt lat="43.22652" lon="6.14004">
        <ele>97.2</ele>
        <time>2021-07-27T09:41:23Z</time>
      </trkpt>
      <trkpt lat="43.2265" lon="6.14006">
        <ele>97.4</ele>
        <time>2021-07-27T09:41:25Z</time>
      </trkpt>
      <trkpt lat="43.2265" lon="6.14007">
        <ele>97.4</ele>
        <time>2021-07-27T09:41:26Z</time>
      </trkpt>
      <trkpt lat="43.22647" lon="6.14011">
        <ele>97.8</ele>
        <time>2021-07-27T09:41:30Z</time>
      </trkpt>
      <trkpt lat="43.22644" lon="6.14018">
        <ele>98.6</ele>
        <time>2021-07-27T09:41:35Z</time>
      </trkpt>
      <trkpt lat="43.22641" lon="6.14025">
        <ele>99.6</ele>
        <time>2021-07-27T09:41:41Z</time>
      </trkpt>
      <trkpt lat="43.22639" lon="6.1403">
        <ele>100</ele>
        <time>2021-07-27T09:41:45Z</time>
      </trkpt>
      <trkpt lat="43.22639" lon="6.14033">
        <ele>100.8</ele>
        <time>2021-07-27T09:41:48Z</time>
      </trkpt>
      <trkpt lat="43.22638" lon="6.14044">
        <ele>102</ele>
        <time>2021-07-27T09:41:56Z</time>
      </trkpt>
      <trkpt lat="43.22638" lon="6.14047">
        <ele>102.4</ele>
        <time>2021-07-27T09:41:59Z</time>
      </trkpt>
      <trkpt lat="43.22638" lon="6.14047">
        <ele>102.6</ele>
        <time>2021-07-27T09:42:01Z</time>
      </trkpt>
      <trkpt lat="43.22639" lon="6.14048">
        <ele>102.8</ele>
        <time>2021-07-27T09:42:04Z</time>
      </trkpt>
      <trkpt lat="43.22639" lon="6.14049">
        <ele>103</ele>
        <time>2021-07-27T09:42:05Z</time>
      </trkpt>
      <trkpt lat="43.22638" lon="6.14051">
        <ele>102.8</ele>
        <time>2021-07-27T09:42:08Z</time>
      </trkpt>
      <trkpt lat="43.22639" lon="6.14058">
        <ele>104</ele>
        <time>2021-07-27T09:42:17Z</time>
      </trkpt>
      <trkpt lat="43.22639" lon="6.14058">
        <ele>104.2</ele>
        <time>2021-07-27T09:42:18Z</time>
      </trkpt>
      <trkpt lat="43.22641" lon="6.14057">
        <ele>104.8</ele>
        <time>2021-07-27T09:42:28Z</time>
      </trkpt>
      <trkpt lat="43.22643" lon="6.14065">
        <ele>105.4</ele>
        <time>2021-07-27T09:42:37Z</time>
      </trkpt>
      <trkpt lat="43.22643" lon="6.14066">
        <ele>105.8</ele>
        <time>2021-07-27T09:42:38Z</time>
      </trkpt>
      <trkpt lat="43.22644" lon="6.14071">
        <ele>106.4</ele>
        <time>2021-07-27T09:42:43Z</time>
      </trkpt>
      <trkpt lat="43.22645" lon="6.14072">
        <ele>106.6</ele>
        <time>2021-07-27T09:42:44Z</time>
      </trkpt>
      <trkpt lat="43.22645" lon="6.14076">
        <ele>107.6</ele>
        <time>2021-07-27T09:42:48Z</time>
      </trkpt>
      <trkpt lat="43.22647" lon="6.14076">
        <ele>107.8</ele>
        <time>2021-07-27T09:42:51Z</time>
      </trkpt>
      <trkpt lat="43.22648" lon="6.14085">
        <ele>108.6</ele>
        <time>2021-07-27T09:43:00Z</time>
      </trkpt>
      <trkpt lat="43.22648" lon="6.14094">
        <ele>109.6</ele>
        <time>2021-07-27T09:43:10Z</time>
      </trkpt>
      <trkpt lat="43.22648" lon="6.14094">
        <ele>109.4</ele>
        <time>2021-07-27T09:43:12Z</time>
      </trkpt>
      <trkpt lat="43.22648" lon="6.14094">
        <ele>109.6</ele>
        <time>2021-07-27T09:43:14Z</time>
      </trkpt>
      <trkpt lat="43.22653" lon="6.14091">
        <ele>109.8</ele>
        <time>2021-07-27T09:43:23Z</time>
      </trkpt>
      <trkpt lat="43.22654" lon="6.14083">
        <ele>110.6</ele>
        <time>2021-07-27T09:43:30Z</time>
      </trkpt>
      <trkpt lat="43.22654" lon="6.14081">
        <ele>109.6</ele>
        <time>2021-07-27T09:43:33Z</time>
      </trkpt>
      <trkpt lat="43.22653" lon="6.1408">
        <ele>109.4</ele>
        <time>2021-07-27T09:43:39Z</time>
      </trkpt>
      <trkpt lat="43.22653" lon="6.1408">
        <ele>108.6</ele>
        <time>2021-07-27T09:43:44Z</time>
      </trkpt>
      <trkpt lat="43.22653" lon="6.1408">
        <ele>108.2</ele>
        <time>2021-07-27T09:43:48Z</time>
      </trkpt>
      <trkpt lat="43.22655" lon="6.1408">
        <ele>107.8</ele>
        <time>2021-07-27T09:44:04Z</time>
      </trkpt>
      <trkpt lat="43.22656" lon="6.1408">
        <ele>107.4</ele>
        <time>2021-07-27T09:44:06Z</time>
      </trkpt>
      <trkpt lat="43.22658" lon="6.14079">
        <ele>108.8</ele>
        <time>2021-07-27T09:44:12Z</time>
      </trkpt>
      <trkpt lat="43.22659" lon="6.14079">
        <ele>109.6</ele>
        <time>2021-07-27T09:44:17Z</time>
      </trkpt>
      <trkpt lat="43.22659" lon="6.14079">
        <ele>109.8</ele>
        <time>2021-07-27T09:44:18Z</time>
      </trkpt>
      <trkpt lat="43.2266" lon="6.14078">
        <ele>108.6</ele>
        <time>2021-07-27T09:44:25Z</time>
      </trkpt>
      <trkpt lat="43.2266" lon="6.14078">
        <ele>109.4</ele>
        <time>2021-07-27T09:44:31Z</time>
      </trkpt>
      <trkpt lat="43.2266" lon="6.14078">
        <ele>109.6</ele>
        <time>2021-07-27T09:44:32Z</time>
      </trkpt>
      <trkpt lat="43.22659" lon="6.14078">
        <ele>110.8</ele>
        <time>2021-07-27T09:44:38Z</time>
      </trkpt>
      <trkpt lat="43.2266" lon="6.14077">
        <ele>110.8</ele>
        <time>2021-07-27T09:44:43Z</time>
      </trkpt>
      <trkpt lat="43.22663" lon="6.14076">
        <ele>111.8</ele>
        <time>2021-07-27T09:44:47Z</time>
      </trkpt>
      <trkpt lat="43.22665" lon="6.14074">
        <ele>113</ele>
        <time>2021-07-27T09:44:51Z</time>
      </trkpt>
      <trkpt lat="43.22665" lon="6.14071">
        <ele>113.2</ele>
        <time>2021-07-27T09:44:54Z</time>
      </trkpt>
      <trkpt lat="43.22664" lon="6.14071">
        <ele>114.2</ele>
        <time>2021-07-27T09:45:02Z</time>
      </trkpt>
      <trkpt lat="43.22664" lon="6.14071">
        <ele>115.2</ele>
        <time>2021-07-27T09:45:04Z</time>
      </trkpt>
      <trkpt lat="43.22665" lon="6.1407">
        <ele>115.2</ele>
        <time>2021-07-27T09:45:06Z</time>
      </trkpt>
      <trkpt lat="43.22665" lon="6.14065">
        <ele>114.6</ele>
        <time>2021-07-27T09:45:14Z</time>
      </trkpt>
      <trkpt lat="43.22664" lon="6.14065">
        <ele>114.8</ele>
        <time>2021-07-27T09:45:30Z</time>
      </trkpt>
      <trkpt lat="43.22664" lon="6.14065">
        <ele>114.8</ele>
        <time>2021-07-27T09:45:45Z</time>
      </trkpt>
      <trkpt lat="43.22662" lon="6.14064">
        <ele>114.6</ele>
        <time>2021-07-27T09:45:54Z</time>
      </trkpt>
      <trkpt lat="43.22663" lon="6.14065">
        <ele>114.8</ele>
        <time>2021-07-27T09:46:06Z</time>
      </trkpt>
      <trkpt lat="43.22663" lon="6.14065">
        <ele>114.8</ele>
        <time>2021-07-27T09:46:25Z</time>
      </trkpt>
      <trkpt lat="43.22663" lon="6.14065">
        <ele>114.8</ele>
        <time>2021-07-27T09:46:28Z</time>
      </trkpt>
      <trkpt lat="43.22663" lon="6.14066">
        <ele>114.8</ele>
        <time>2021-07-27T09:46:37Z</time>
      </trkpt>
      <trkpt lat="43.22664" lon="6.14071">
        <ele>114.8</ele>
        <time>2021-07-27T09:46:47Z</time>
      </trkpt>
      <trkpt lat="43.22666" lon="6.14077">
        <ele>114.8</ele>
        <time>2021-07-27T09:47:00Z</time>
      </trkpt>
      <trkpt lat="43.22672" lon="6.14082">
        <ele>114.8</ele>
        <time>2021-07-27T09:47:09Z</time>
      </trkpt>
      <trkpt lat="43.22674" lon="6.14086">
        <ele>114.8</ele>
        <time>2021-07-27T09:47:19Z</time>
      </trkpt>
      <trkpt lat="43.22672" lon="6.14086">
        <ele>115</ele>
        <time>2021-07-27T09:47:31Z</time>
      </trkpt>
      <trkpt lat="43.22673" lon="6.14087">
        <ele>114.8</ele>
        <time>2021-07-27T09:47:45Z</time>
      </trkpt>
      <trkpt lat="43.22674" lon="6.14086">
        <ele>114.8</ele>
        <time>2021-07-27T09:47:59Z</time>
      </trkpt>
      <trkpt lat="43.22679" lon="6.14082">
        <ele>114</ele>
        <time>2021-07-27T09:48:09Z</time>
      </trkpt>
      <trkpt lat="43.22679" lon="6.14081">
        <ele>113.8</ele>
        <time>2021-07-27T09:48:10Z</time>
      </trkpt>
      <trkpt lat="43.2268" lon="6.1408">
        <ele>113.2</ele>
        <time>2021-07-27T09:48:12Z</time>
      </trkpt>
      <trkpt lat="43.22681" lon="6.14078">
        <ele>112.8</ele>
        <time>2021-07-27T09:48:14Z</time>
      </trkpt>
      <trkpt lat="43.22682" lon="6.14078">
        <ele>112.6</ele>
        <time>2021-07-27T09:48:15Z</time>
      </trkpt>
      <trkpt lat="43.22683" lon="6.14078">
        <ele>112.4</ele>
        <time>2021-07-27T09:48:17Z</time>
      </trkpt>
      <trkpt lat="43.22685" lon="6.14076">
        <ele>112</ele>
        <time>2021-07-27T09:48:21Z</time>
      </trkpt>
      <trkpt lat="43.22686" lon="6.14076">
        <ele>111.6</ele>
        <time>2021-07-27T09:48:22Z</time>
      </trkpt>
      <trkpt lat="43.22687" lon="6.14076">
        <ele>111.4</ele>
        <time>2021-07-27T09:48:25Z</time>
      </trkpt>
      <trkpt lat="43.22687" lon="6.14074">
        <ele>111.6</ele>
        <time>2021-07-27T09:48:42Z</time>
      </trkpt>
      <trkpt lat="43.22688" lon="6.14074">
        <ele>111.8</ele>
        <time>2021-07-27T09:48:53Z</time>
      </trkpt>
      <trkpt lat="43.22688" lon="6.14078">
        <ele>111.6</ele>
        <time>2021-07-27T09:49:08Z</time>
      </trkpt>
      <trkpt lat="43.22684" lon="6.14078">
        <ele>112</ele>
        <time>2021-07-27T09:49:18Z</time>
      </trkpt>
      <trkpt lat="43.2268" lon="6.14081">
        <ele>112.6</ele>
        <time>2021-07-27T09:49:25Z</time>
      </trkpt>
      <trkpt lat="43.22679" lon="6.14082">
        <ele>112.8</ele>
        <time>2021-07-27T09:49:26Z</time>
      </trkpt>
      <trkpt lat="43.22678" lon="6.14082">
        <ele>113</ele>
        <time>2021-07-27T09:49:27Z</time>
      </trkpt>
      <trkpt lat="43.22677" lon="6.14083">
        <ele>114.6</ele>
        <time>2021-07-27T09:49:30Z</time>
      </trkpt>
      <trkpt lat="43.22674" lon="6.14085">
        <ele>114.6</ele>
        <time>2021-07-27T09:49:33Z</time>
      </trkpt>
      <trkpt lat="43.22672" lon="6.14089">
        <ele>114.8</ele>
        <time>2021-07-27T09:49:37Z</time>
      </trkpt>
      <trkpt lat="43.2267" lon="6.14094">
        <ele>115.8</ele>
        <time>2021-07-27T09:49:42Z</time>
      </trkpt>
      <trkpt lat="43.22668" lon="6.14097">
        <ele>115.6</ele>
        <time>2021-07-27T09:49:45Z</time>
      </trkpt>
      <trkpt lat="43.22667" lon="6.141">
        <ele>115.6</ele>
        <time>2021-07-27T09:49:50Z</time>
      </trkpt>
      <trkpt lat="43.22665" lon="6.14101">
        <ele>115.6</ele>
        <time>2021-07-27T09:49:53Z</time>
      </trkpt>
      <trkpt lat="43.22665" lon="6.14103">
        <ele>115.6</ele>
        <time>2021-07-27T09:49:56Z</time>
      </trkpt>
      <trkpt lat="43.22666" lon="6.14115">
        <ele>115.8</ele>
        <time>2021-07-27T09:50:10Z</time>
      </trkpt>
      <trkpt lat="43.22669" lon="6.14121">
        <ele>115.6</ele>
        <time>2021-07-27T09:50:20Z</time>
      </trkpt>
      <trkpt lat="43.2267" lon="6.14121">
        <ele>115.8</ele>
        <time>2021-07-27T09:50:31Z</time>
      </trkpt>
      <trkpt lat="43.22668" lon="6.14116">
        <ele>115.2</ele>
        <time>2021-07-27T09:50:40Z</time>
      </trkpt>
      <trkpt lat="43.22664" lon="6.14111">
        <ele>114.6</ele>
        <time>2021-07-27T09:50:48Z</time>
      </trkpt>
      <trkpt lat="43.22663" lon="6.14108">
        <ele>114.2</ele>
        <time>2021-07-27T09:50:52Z</time>
      </trkpt>
      <trkpt lat="43.22661" lon="6.14105">
        <ele>113.6</ele>
        <time>2021-07-27T09:50:58Z</time>
      </trkpt>
      <trkpt lat="43.2266" lon="6.141">
        <ele>112.6</ele>
        <time>2021-07-27T09:51:03Z</time>
      </trkpt>
      <trkpt lat="43.22658" lon="6.14089">
        <ele>112.8</ele>
        <time>2021-07-27T09:51:13Z</time>
      </trkpt>
      <trkpt lat="43.22657" lon="6.14088">
        <ele>112.4</ele>
        <time>2021-07-27T09:51:16Z</time>
      </trkpt>
      <trkpt lat="43.22656" lon="6.14088">
        <ele>112.4</ele>
        <time>2021-07-27T09:51:17Z</time>
      </trkpt>
      <trkpt lat="43.22655" lon="6.1409">
        <ele>112.4</ele>
        <time>2021-07-27T09:51:18Z</time>
      </trkpt>
      <trkpt lat="43.22655" lon="6.14092">
        <ele>112</ele>
        <time>2021-07-27T09:51:20Z</time>
      </trkpt>
      <trkpt lat="43.22654" lon="6.14097">
        <ele>111.6</ele>
        <time>2021-07-27T09:51:23Z</time>
      </trkpt>
      <trkpt lat="43.22655" lon="6.14107">
        <ele>111.6</ele>
        <time>2021-07-27T09:51:31Z</time>
      </trkpt>
      <trkpt lat="43.22655" lon="6.14109">
        <ele>111.4</ele>
        <time>2021-07-27T09:51:33Z</time>
      </trkpt>
      <trkpt lat="43.22658" lon="6.14112">
        <ele>112.4</ele>
        <time>2021-07-27T09:51:39Z</time>
      </trkpt>
      <trkpt lat="43.22658" lon="6.14112">
        <ele>112.4</ele>
        <time>2021-07-27T09:51:41Z</time>
      </trkpt>
      <trkpt lat="43.22658" lon="6.14112">
        <ele>112.4</ele>
        <time>2021-07-27T09:51:44Z</time>
      </trkpt>
      <trkpt lat="43.22657" lon="6.14112">
        <ele>112.8</ele>
        <time>2021-07-27T09:51:55Z</time>
      </trkpt>
      <trkpt lat="43.22659" lon="6.14111">
        <ele>112.8</ele>
        <time>2021-07-27T09:52:08Z</time>
      </trkpt>
      <trkpt lat="43.22658" lon="6.14115">
        <ele>112.8</ele>
        <time>2021-07-27T09:52:23Z</time>
      </trkpt>
      <trkpt lat="43.22659" lon="6.14127">
        <ele>112.8</ele>
        <time>2021-07-27T09:52:34Z</time>
      </trkpt>
      <trkpt lat="43.22659" lon="6.14127">
        <ele>112.8</ele>
        <time>2021-07-27T09:52:35Z</time>
      </trkpt>
      <trkpt lat="43.22659" lon="6.14127">
        <ele>112</ele>
        <time>2021-07-27T09:52:49Z</time>
      </trkpt>
      <trkpt lat="43.22659" lon="6.14127">
        <ele>117.6</ele>
        <time>2021-07-27T09:52:55Z</time>
      </trkpt>
      <trkpt lat="43.22658" lon="6.14128">
        <ele>117.8</ele>
        <time>2021-07-27T09:53:07Z</time>
      </trkpt>
      <trkpt lat="43.22658" lon="6.14128">
        <ele>114.2</ele>
        <time>2021-07-27T09:53:11Z</time>
      </trkpt>
      <trkpt lat="43.22658" lon="6.14128">
        <ele>108.8</ele>
        <time>2021-07-27T09:53:12Z</time>
      </trkpt>
      <trkpt lat="43.22658" lon="6.14128">
        <ele>107.8</ele>
        <time>2021-07-27T09:53:14Z</time>
      </trkpt>
      <trkpt lat="43.22658" lon="6.14128">
        <ele>106.6</ele>
        <time>2021-07-27T09:53:17Z</time>
      </trkpt>
      <trkpt lat="43.22658" lon="6.14128">
        <ele>105.4</ele>
        <time>2021-07-27T09:53:21Z</time>
      </trkpt>
      <trkpt lat="43.22658" lon="6.14128">
        <ele>97</ele>
        <time>2021-07-27T09:53:23Z</time>
      </trkpt>
      <trkpt lat="43.22658" lon="6.14128">
        <ele>90.6</ele>
        <time>2021-07-27T09:53:24Z</time>
      </trkpt>
      <trkpt lat="43.22658" lon="6.14128">
        <ele>87.4</ele>
        <time>2021-07-27T09:53:25Z</time>
      </trkpt>
      <trkpt lat="43.22658" lon="6.14128">
        <ele>85.8</ele>
        <time>2021-07-27T09:53:26Z</time>
      </trkpt>
      <trkpt lat="43.22658" lon="6.14128">
        <ele>84.4</ele>
        <time>2021-07-27T09:53:27Z</time>
      </trkpt>
      <trkpt lat="43.22658" lon="6.14128">
        <ele>83.2</ele>
        <time>2021-07-27T09:53:29Z</time>
      </trkpt>
      <trkpt lat="43.22658" lon="6.14128">
        <ele>82</ele>
        <time>2021-07-27T09:53:32Z</time>
      </trkpt>
      <trkpt lat="43.22658" lon="6.14127">
        <ele>80.4</ele>
        <time>2021-07-27T09:53:34Z</time>
      </trkpt>
      <trkpt lat="43.22658" lon="6.14127">
        <ele>79.2</ele>
        <time>2021-07-27T09:53:36Z</time>
      </trkpt>
      <trkpt lat="43.22658" lon="6.14128">
        <ele>78.2</ele>
        <time>2021-07-27T09:53:38Z</time>
      </trkpt>
      <trkpt lat="43.22658" lon="6.14128">
        <ele>77.6</ele>
        <time>2021-07-27T09:53:39Z</time>
      </trkpt>
      <trkpt lat="43.22658" lon="6.14128">
        <ele>77</ele>
        <time>2021-07-27T09:53:41Z</time>
      </trkpt>
      <trkpt lat="43.22658" lon="6.14129">
        <ele>75.8</ele>
        <time>2021-07-27T09:53:45Z</time>
      </trkpt>
      <trkpt lat="43.22658" lon="6.14129">
        <ele>106.2</ele>
        <time>2021-07-27T09:53:48Z</time>
      </trkpt>
      <trkpt lat="43.22658" lon="6.14129">
        <ele>117.4</ele>
        <time>2021-07-27T09:53:49Z</time>
      </trkpt>
      <trkpt lat="43.22658" lon="6.14129">
        <ele>122.6</ele>
        <time>2021-07-27T09:53:50Z</time>
      </trkpt>
      <trkpt lat="43.22658" lon="6.14129">
        <ele>125.2</ele>
        <time>2021-07-27T09:53:51Z</time>
      </trkpt>
      <trkpt lat="43.22658" lon="6.14129">
        <ele>126.2</ele>
        <time>2021-07-27T09:53:52Z</time>
      </trkpt>
      <trkpt lat="43.22658" lon="6.14129">
        <ele>126</ele>
        <time>2021-07-27T09:53:55Z</time>
      </trkpt>
      <trkpt lat="43.22658" lon="6.14129">
        <ele>125</ele>
        <time>2021-07-27T09:53:56Z</time>
      </trkpt>
      <trkpt lat="43.22657" lon="6.14129">
        <ele>123.6</ele>
        <time>2021-07-27T09:53:59Z</time>
      </trkpt>
      <trkpt lat="43.22657" lon="6.14129">
        <ele>122.4</ele>
        <time>2021-07-27T09:54:11Z</time>
      </trkpt>
      <trkpt lat="43.22658" lon="6.14129">
        <ele>120</ele>
        <time>2021-07-27T09:54:19Z</time>
      </trkpt>
      <trkpt lat="43.22658" lon="6.14129">
        <ele>118.6</ele>
        <time>2021-07-27T09:54:20Z</time>
      </trkpt>
      <trkpt lat="43.22658" lon="6.1413">
        <ele>118</ele>
        <time>2021-07-27T09:54:26Z</time>
      </trkpt>
      <trkpt lat="43.22658" lon="6.1413">
        <ele>116.4</ele>
        <time>2021-07-27T09:54:28Z</time>
      </trkpt>
      <trkpt lat="43.22658" lon="6.1413">
        <ele>115.2</ele>
        <time>2021-07-27T09:54:29Z</time>
      </trkpt>
      <trkpt lat="43.22658" lon="6.1413">
        <ele>114</ele>
        <time>2021-07-27T09:54:32Z</time>
      </trkpt>
      <trkpt lat="43.22659" lon="6.1413">
        <ele>114.4</ele>
        <time>2021-07-27T09:54:36Z</time>
      </trkpt>
      <trkpt lat="43.2266" lon="6.1413">
        <ele>116.4</ele>
        <time>2021-07-27T09:54:38Z</time>
      </trkpt>
      <trkpt lat="43.22665" lon="6.14133">
        <ele>116.8</ele>
        <time>2021-07-27T09:54:46Z</time>
      </trkpt>
      <trkpt lat="43.22666" lon="6.14133">
        <ele>113.8</ele>
        <time>2021-07-27T09:54:47Z</time>
      </trkpt>
      <trkpt lat="43.22666" lon="6.14133">
        <ele>112.4</ele>
        <time>2021-07-27T09:54:48Z</time>
      </trkpt>
      <trkpt lat="43.22666" lon="6.14134">
        <ele>111.4</ele>
        <time>2021-07-27T09:54:50Z</time>
      </trkpt>
      <trkpt lat="43.22666" lon="6.14134">
        <ele>110.8</ele>
        <time>2021-07-27T09:54:56Z</time>
      </trkpt>
      <trkpt lat="43.22666" lon="6.14135">
        <ele>110.4</ele>
        <time>2021-07-27T09:55:00Z</time>
      </trkpt>
      <trkpt lat="43.2267" lon="6.14136">
        <ele>109.8</ele>
        <time>2021-07-27T09:55:10Z</time>
      </trkpt>
      <trkpt lat="43.22675" lon="6.14139">
        <ele>111.2</ele>
        <time>2021-07-27T09:55:19Z</time>
      </trkpt>
      <trkpt lat="43.22673" lon="6.14143">
        <ele>109</ele>
        <time>2021-07-27T09:55:28Z</time>
      </trkpt>
      <trkpt lat="43.22671" lon="6.14145">
        <ele>108.8</ele>
        <time>2021-07-27T09:55:30Z</time>
      </trkpt>
      <trkpt lat="43.22668" lon="6.1415">
        <ele>108.2</ele>
        <time>2021-07-27T09:55:37Z</time>
      </trkpt>
      <trkpt lat="43.22667" lon="6.1415">
        <ele>108</ele>
        <time>2021-07-27T09:55:38Z</time>
      </trkpt>
      <trkpt lat="43.22665" lon="6.1415">
        <ele>114.6</ele>
        <time>2021-07-27T09:55:45Z</time>
      </trkpt>
      <trkpt lat="43.22665" lon="6.1415">
        <ele>118</ele>
        <time>2021-07-27T09:55:46Z</time>
      </trkpt>
      <trkpt lat="43.22665" lon="6.1415">
        <ele>119.8</ele>
        <time>2021-07-27T09:55:47Z</time>
      </trkpt>
      <trkpt lat="43.22666" lon="6.1415">
        <ele>121.4</ele>
        <time>2021-07-27T09:55:49Z</time>
      </trkpt>
      <trkpt lat="43.22666" lon="6.1415">
        <ele>122.4</ele>
        <time>2021-07-27T09:55:51Z</time>
      </trkpt>
      <trkpt lat="43.22665" lon="6.14149">
        <ele>122.6</ele>
        <time>2021-07-27T09:55:52Z</time>
      </trkpt>
      <trkpt lat="43.22663" lon="6.14148">
        <ele>124</ele>
        <time>2021-07-27T09:55:56Z</time>
      </trkpt>
      <trkpt lat="43.22662" lon="6.14148">
        <ele>124.4</ele>
        <time>2021-07-27T09:55:58Z</time>
      </trkpt>
      <trkpt lat="43.22661" lon="6.14148">
        <ele>124.8</ele>
        <time>2021-07-27T09:56:00Z</time>
      </trkpt>
      <trkpt lat="43.22661" lon="6.14147">
        <ele>124.8</ele>
        <time>2021-07-27T09:56:01Z</time>
      </trkpt>
      <trkpt lat="43.2266" lon="6.14147">
        <ele>125</ele>
        <time>2021-07-27T09:56:02Z</time>
      </trkpt>
      <trkpt lat="43.2266" lon="6.14147">
        <ele>114.8</ele>
        <time>2021-07-27T09:56:03Z</time>
      </trkpt>
      <trkpt lat="43.22659" lon="6.14146">
        <ele>111.8</ele>
        <time>2021-07-27T09:56:04Z</time>
      </trkpt>
      <trkpt lat="43.22659" lon="6.14145">
        <ele>110.4</ele>
        <time>2021-07-27T09:56:05Z</time>
      </trkpt>
      <trkpt lat="43.22658" lon="6.14142">
        <ele>109.2</ele>
        <time>2021-07-27T09:56:07Z</time>
      </trkpt>
      <trkpt lat="43.22657" lon="6.14141">
        <ele>109</ele>
        <time>2021-07-27T09:56:09Z</time>
      </trkpt>
      <trkpt lat="43.22656" lon="6.1414">
        <ele>108.8</ele>
        <time>2021-07-27T09:56:11Z</time>
      </trkpt>
      <trkpt lat="43.22654" lon="6.1414">
        <ele>108.6</ele>
        <time>2021-07-27T09:56:13Z</time>
      </trkpt>
      <trkpt lat="43.22653" lon="6.1414">
        <ele>108</ele>
        <time>2021-07-27T09:56:16Z</time>
      </trkpt>
      <trkpt lat="43.22652" lon="6.1414">
        <ele>108</ele>
        <time>2021-07-27T09:56:17Z</time>
      </trkpt>
      <trkpt lat="43.22651" lon="6.14141">
        <ele>107.2</ele>
        <time>2021-07-27T09:56:19Z</time>
      </trkpt>
      <trkpt lat="43.22651" lon="6.14141">
        <ele>107</ele>
        <time>2021-07-27T09:56:20Z</time>
      </trkpt>
      <trkpt lat="43.22649" lon="6.14147">
        <ele>106.4</ele>
        <time>2021-07-27T09:56:26Z</time>
      </trkpt>
      <trkpt lat="43.22649" lon="6.14149">
        <ele>106</ele>
        <time>2021-07-27T09:56:28Z</time>
      </trkpt>
      <trkpt lat="43.22649" lon="6.1415">
        <ele>106</ele>
        <time>2021-07-27T09:56:29Z</time>
      </trkpt>
      <trkpt lat="43.22649" lon="6.14151">
        <ele>106</ele>
        <time>2021-07-27T09:56:30Z</time>
      </trkpt>
      <trkpt lat="43.22648" lon="6.14153">
        <ele>105.4</ele>
        <time>2021-07-27T09:56:33Z</time>
      </trkpt>
      <trkpt lat="43.22647" lon="6.14154">
        <ele>104.6</ele>
        <time>2021-07-27T09:56:35Z</time>
      </trkpt>
      <trkpt lat="43.22647" lon="6.14154">
        <ele>104.4</ele>
        <time>2021-07-27T09:56:36Z</time>
      </trkpt>
      <trkpt lat="43.22645" lon="6.14156">
        <ele>103.8</ele>
        <time>2021-07-27T09:56:39Z</time>
      </trkpt>
      <trkpt lat="43.22644" lon="6.14157">
        <ele>103.6</ele>
        <time>2021-07-27T09:56:40Z</time>
      </trkpt>
      <trkpt lat="43.22642" lon="6.14161">
        <ele>102.6</ele>
        <time>2021-07-27T09:56:47Z</time>
      </trkpt>
      <trkpt lat="43.22639" lon="6.14158">
        <ele>101.6</ele>
        <time>2021-07-27T09:56:52Z</time>
      </trkpt>
      <trkpt lat="43.22639" lon="6.14157">
        <ele>101.4</ele>
        <time>2021-07-27T09:56:53Z</time>
      </trkpt>
      <trkpt lat="43.22637" lon="6.1416">
        <ele>100.4</ele>
        <time>2021-07-27T09:56:59Z</time>
      </trkpt>
      <trkpt lat="43.22636" lon="6.14164">
        <ele>100</ele>
        <time>2021-07-27T09:57:02Z</time>
      </trkpt>
      <trkpt lat="43.22637" lon="6.14167">
        <ele>99.2</ele>
        <time>2021-07-27T09:57:06Z</time>
      </trkpt>
      <trkpt lat="43.22636" lon="6.14171">
        <ele>98.2</ele>
        <time>2021-07-27T09:57:13Z</time>
      </trkpt>
      <trkpt lat="43.22635" lon="6.14172">
        <ele>98</ele>
        <time>2021-07-27T09:57:15Z</time>
      </trkpt>
      <trkpt lat="43.22633" lon="6.14169">
        <ele>97</ele>
        <time>2021-07-27T09:57:21Z</time>
      </trkpt>
      <trkpt lat="43.22633" lon="6.14167">
        <ele>96.2</ele>
        <time>2021-07-27T09:57:26Z</time>
      </trkpt>
      <trkpt lat="43.22629" lon="6.14163">
        <ele>95.8</ele>
        <time>2021-07-27T09:57:38Z</time>
      </trkpt>
      <trkpt lat="43.22628" lon="6.14163">
        <ele>95.8</ele>
        <time>2021-07-27T09:57:39Z</time>
      </trkpt>
      <trkpt lat="43.22622" lon="6.14157">
        <ele>94.8</ele>
        <time>2021-07-27T09:57:50Z</time>
      </trkpt>
      <trkpt lat="43.22618" lon="6.14158">
        <ele>93.6</ele>
        <time>2021-07-27T09:57:55Z</time>
      </trkpt>
      <trkpt lat="43.22617" lon="6.14162">
        <ele>92.8</ele>
        <time>2021-07-27T09:58:00Z</time>
      </trkpt>
      <trkpt lat="43.22618" lon="6.14164">
        <ele>92.6</ele>
        <time>2021-07-27T09:58:02Z</time>
      </trkpt>
      <trkpt lat="43.22618" lon="6.14164">
        <ele>92.6</ele>
        <time>2021-07-27T09:58:03Z</time>
      </trkpt>
      <trkpt lat="43.22619" lon="6.14165">
        <ele>92.6</ele>
        <time>2021-07-27T09:58:05Z</time>
      </trkpt>
      <trkpt lat="43.22618" lon="6.14166">
        <ele>92.4</ele>
        <time>2021-07-27T09:58:08Z</time>
      </trkpt>
      <trkpt lat="43.22617" lon="6.14168">
        <ele>91.4</ele>
        <time>2021-07-27T09:58:13Z</time>
      </trkpt>
      <trkpt lat="43.22616" lon="6.14171">
        <ele>90.8</ele>
        <time>2021-07-27T09:58:17Z</time>
      </trkpt>
      <trkpt lat="43.22617" lon="6.14173">
        <ele>90.2</ele>
        <time>2021-07-27T09:58:21Z</time>
      </trkpt>
      <trkpt lat="43.22613" lon="6.1418">
        <ele>89.2</ele>
        <time>2021-07-27T09:58:33Z</time>
      </trkpt>
      <trkpt lat="43.22608" lon="6.14187">
        <ele>88.4</ele>
        <time>2021-07-27T09:58:48Z</time>
      </trkpt>
      <trkpt lat="43.22603" lon="6.14179">
        <ele>88.4</ele>
        <time>2021-07-27T09:58:58Z</time>
      </trkpt>
      <trkpt lat="43.22605" lon="6.14173">
        <ele>88</ele>
        <time>2021-07-27T09:59:01Z</time>
      </trkpt>
      <trkpt lat="43.22604" lon="6.14172">
        <ele>88</ele>
        <time>2021-07-27T09:59:02Z</time>
      </trkpt>
      <trkpt lat="43.22605" lon="6.1417">
        <ele>87.8</ele>
        <time>2021-07-27T09:59:05Z</time>
      </trkpt>
      <trkpt lat="43.22605" lon="6.1417">
        <ele>87.6</ele>
        <time>2021-07-27T09:59:09Z</time>
      </trkpt>
      <trkpt lat="43.22602" lon="6.14173">
        <ele>87</ele>
        <time>2021-07-27T09:59:14Z</time>
      </trkpt>
      <trkpt lat="43.22601" lon="6.14176">
        <ele>86</ele>
        <time>2021-07-27T09:59:17Z</time>
      </trkpt>
      <trkpt lat="43.226" lon="6.1418">
        <ele>85.4</ele>
        <time>2021-07-27T09:59:20Z</time>
      </trkpt>
      <trkpt lat="43.22599" lon="6.14181">
        <ele>85.2</ele>
        <time>2021-07-27T09:59:21Z</time>
      </trkpt>
      <trkpt lat="43.22599" lon="6.14182">
        <ele>84.6</ele>
        <time>2021-07-27T09:59:23Z</time>
      </trkpt>
      <trkpt lat="43.22599" lon="6.14185">
        <ele>84</ele>
        <time>2021-07-27T09:59:27Z</time>
      </trkpt>
      <trkpt lat="43.22601" lon="6.14187">
        <ele>83.6</ele>
        <time>2021-07-27T09:59:30Z</time>
      </trkpt>
      <trkpt lat="43.22601" lon="6.14191">
        <ele>83</ele>
        <time>2021-07-27T09:59:34Z</time>
      </trkpt>
      <trkpt lat="43.22601" lon="6.14194">
        <ele>82.6</ele>
        <time>2021-07-27T09:59:36Z</time>
      </trkpt>
      <trkpt lat="43.22601" lon="6.14197">
        <ele>82.2</ele>
        <time>2021-07-27T09:59:39Z</time>
      </trkpt>
      <trkpt lat="43.22602" lon="6.14198">
        <ele>81.8</ele>
        <time>2021-07-27T09:59:41Z</time>
      </trkpt>
      <trkpt lat="43.22603" lon="6.142">
        <ele>81.6</ele>
        <time>2021-07-27T09:59:45Z</time>
      </trkpt>
      <trkpt lat="43.22603" lon="6.14202">
        <ele>81.2</ele>
        <time>2021-07-27T09:59:48Z</time>
      </trkpt>
      <trkpt lat="43.226" lon="6.14198">
        <ele>80.4</ele>
        <time>2021-07-27T09:59:58Z</time>
      </trkpt>
      <trkpt lat="43.22598" lon="6.14203">
        <ele>79.6</ele>
        <time>2021-07-27T10:00:09Z</time>
      </trkpt>
      <trkpt lat="43.22599" lon="6.14205">
        <ele>79.2</ele>
        <time>2021-07-27T10:00:11Z</time>
      </trkpt>
      <trkpt lat="43.22603" lon="6.14211">
        <ele>78.2</ele>
        <time>2021-07-27T10:00:18Z</time>
      </trkpt>
      <trkpt lat="43.22603" lon="6.14214">
        <ele>77.8</ele>
        <time>2021-07-27T10:00:21Z</time>
      </trkpt>
      <trkpt lat="43.22604" lon="6.14216">
        <ele>77.8</ele>
        <time>2021-07-27T10:00:23Z</time>
      </trkpt>
      <trkpt lat="43.22605" lon="6.1422">
        <ele>77.4</ele>
        <time>2021-07-27T10:00:27Z</time>
      </trkpt>
      <trkpt lat="43.22608" lon="6.14223">
        <ele>77.2</ele>
        <time>2021-07-27T10:00:31Z</time>
      </trkpt>
      <trkpt lat="43.22608" lon="6.14224">
        <ele>76.8</ele>
        <time>2021-07-27T10:00:33Z</time>
      </trkpt>
      <trkpt lat="43.22608" lon="6.14226">
        <ele>76.4</ele>
        <time>2021-07-27T10:00:35Z</time>
      </trkpt>
      <trkpt lat="43.22608" lon="6.14227">
        <ele>76.2</ele>
        <time>2021-07-27T10:00:36Z</time>
      </trkpt>
      <trkpt lat="43.22608" lon="6.14229">
        <ele>76</ele>
        <time>2021-07-27T10:00:37Z</time>
      </trkpt>
      <trkpt lat="43.22611" lon="6.14231">
        <ele>75.8</ele>
        <time>2021-07-27T10:00:39Z</time>
      </trkpt>
      <trkpt lat="43.22612" lon="6.14233">
        <ele>75.8</ele>
        <time>2021-07-27T10:00:42Z</time>
      </trkpt>
      <trkpt lat="43.22613" lon="6.14235">
        <ele>75.8</ele>
        <time>2021-07-27T10:00:46Z</time>
      </trkpt>
      <trkpt lat="43.22615" lon="6.14241">
        <ele>75.4</ele>
        <time>2021-07-27T10:00:57Z</time>
      </trkpt>
      <trkpt lat="43.22617" lon="6.14244">
        <ele>75</ele>
        <time>2021-07-27T10:01:01Z</time>
      </trkpt>
      <trkpt lat="43.2262" lon="6.14249">
        <ele>74.2</ele>
        <time>2021-07-27T10:01:09Z</time>
      </trkpt>
      <trkpt lat="43.2262" lon="6.1425">
        <ele>74</ele>
        <time>2021-07-27T10:01:11Z</time>
      </trkpt>
      <trkpt lat="43.2262" lon="6.14251">
        <ele>74</ele>
        <time>2021-07-27T10:01:12Z</time>
      </trkpt>
      <trkpt lat="43.22617" lon="6.14255">
        <ele>73.4</ele>
        <time>2021-07-27T10:01:21Z</time>
      </trkpt>
      <trkpt lat="43.22613" lon="6.1425">
        <ele>73</ele>
        <time>2021-07-27T10:01:32Z</time>
      </trkpt>
      <trkpt lat="43.22614" lon="6.1425">
        <ele>73.6</ele>
        <time>2021-07-27T10:01:44Z</time>
      </trkpt>
      <trkpt lat="43.22619" lon="6.14259">
        <ele>73.2</ele>
        <time>2021-07-27T10:01:56Z</time>
      </trkpt>
      <trkpt lat="43.2262" lon="6.1426">
        <ele>73.2</ele>
        <time>2021-07-27T10:01:57Z</time>
      </trkpt>
      <trkpt lat="43.22625" lon="6.14261">
        <ele>73</ele>
        <time>2021-07-27T10:02:01Z</time>
      </trkpt>
      <trkpt lat="43.22626" lon="6.14262">
        <ele>72.8</ele>
        <time>2021-07-27T10:02:02Z</time>
      </trkpt>
      <trkpt lat="43.22628" lon="6.14263">
        <ele>72.8</ele>
        <time>2021-07-27T10:02:05Z</time>
      </trkpt>
      <trkpt lat="43.2263" lon="6.14265">
        <ele>72.6</ele>
        <time>2021-07-27T10:02:09Z</time>
      </trkpt>
      <trkpt lat="43.22632" lon="6.14268">
        <ele>72.6</ele>
        <time>2021-07-27T10:02:14Z</time>
      </trkpt>
      <trkpt lat="43.22633" lon="6.14269">
        <ele>70.2</ele>
        <time>2021-07-27T10:02:17Z</time>
      </trkpt>
      <trkpt lat="43.22633" lon="6.1427">
        <ele>69</ele>
        <time>2021-07-27T10:02:18Z</time>
      </trkpt>
      <trkpt lat="43.22635" lon="6.14271">
        <ele>70.4</ele>
        <time>2021-07-27T10:02:21Z</time>
      </trkpt>
      <trkpt lat="43.22635" lon="6.14271">
        <ele>71.6</ele>
        <time>2021-07-27T10:02:22Z</time>
      </trkpt>
      <trkpt lat="43.22636" lon="6.14272">
        <ele>72.2</ele>
        <time>2021-07-27T10:02:23Z</time>
      </trkpt>
      <trkpt lat="43.22638" lon="6.14272">
        <ele>72.8</ele>
        <time>2021-07-27T10:02:25Z</time>
      </trkpt>
      <trkpt lat="43.22639" lon="6.14273">
        <ele>72.6</ele>
        <time>2021-07-27T10:02:29Z</time>
      </trkpt>
      <trkpt lat="43.22641" lon="6.14274">
        <ele>72.2</ele>
        <time>2021-07-27T10:02:35Z</time>
      </trkpt>
      <trkpt lat="43.22647" lon="6.14276">
        <ele>71.8</ele>
        <time>2021-07-27T10:02:42Z</time>
      </trkpt>
      <trkpt lat="43.22654" lon="6.14281">
        <ele>71.4</ele>
        <time>2021-07-27T10:02:52Z</time>
      </trkpt>
      <trkpt lat="43.22665" lon="6.14283">
        <ele>70.8</ele>
        <time>2021-07-27T10:03:06Z</time>
      </trkpt>
      <trkpt lat="43.22668" lon="6.14282">
        <ele>70.6</ele>
        <time>2021-07-27T10:03:08Z</time>
      </trkpt>
      <trkpt lat="43.22678" lon="6.14286">
        <ele>69.8</ele>
        <time>2021-07-27T10:03:19Z</time>
      </trkpt>
      <trkpt lat="43.22683" lon="6.14287">
        <ele>69.6</ele>
        <time>2021-07-27T10:03:25Z</time>
      </trkpt>
      <trkpt lat="43.22685" lon="6.14289">
        <ele>69.6</ele>
        <time>2021-07-27T10:03:30Z</time>
      </trkpt>
      <trkpt lat="43.22685" lon="6.1429">
        <ele>69.4</ele>
        <time>2021-07-27T10:03:33Z</time>
      </trkpt>
      <trkpt lat="43.22686" lon="6.1429">
        <ele>69.2</ele>
        <time>2021-07-27T10:03:44Z</time>
      </trkpt>
      <trkpt lat="43.22685" lon="6.14291">
        <ele>70.6</ele>
        <time>2021-07-27T10:03:57Z</time>
      </trkpt>
      <trkpt lat="43.22686" lon="6.14291">
        <ele>71</ele>
        <time>2021-07-27T10:03:58Z</time>
      </trkpt>
      <trkpt lat="43.22687" lon="6.14291">
        <ele>72</ele>
        <time>2021-07-27T10:04:16Z</time>
      </trkpt>
      <trkpt lat="43.22692" lon="6.14294">
        <ele>71.2</ele>
        <time>2021-07-27T10:04:25Z</time>
      </trkpt>
      <trkpt lat="43.22694" lon="6.14293">
        <ele>71</ele>
        <time>2021-07-27T10:04:30Z</time>
      </trkpt>
      <trkpt lat="43.22698" lon="6.14297">
        <ele>70.8</ele>
        <time>2021-07-27T10:04:36Z</time>
      </trkpt>
      <trkpt lat="43.22707" lon="6.14297">
        <ele>70</ele>
        <time>2021-07-27T10:04:48Z</time>
      </trkpt>
      <trkpt lat="43.22708" lon="6.14297">
        <ele>70</ele>
        <time>2021-07-27T10:04:50Z</time>
      </trkpt>
      <trkpt lat="43.22712" lon="6.14302">
        <ele>69.6</ele>
        <time>2021-07-27T10:04:59Z</time>
      </trkpt>
      <trkpt lat="43.22708" lon="6.14311">
        <ele>69.4</ele>
        <time>2021-07-27T10:05:10Z</time>
      </trkpt>
      <trkpt lat="43.22707" lon="6.14315">
        <ele>69</ele>
        <time>2021-07-27T10:05:20Z</time>
      </trkpt>
      <trkpt lat="43.22707" lon="6.14316">
        <ele>69</ele>
        <time>2021-07-27T10:05:21Z</time>
      </trkpt>
      <trkpt lat="43.22712" lon="6.14319">
        <ele>69</ele>
        <time>2021-07-27T10:05:32Z</time>
      </trkpt>
      <trkpt lat="43.22714" lon="6.14322">
        <ele>68.4</ele>
        <time>2021-07-27T10:05:47Z</time>
      </trkpt>
      <trkpt lat="43.22717" lon="6.1432">
        <ele>73.6</ele>
        <time>2021-07-27T10:05:53Z</time>
      </trkpt>
      <trkpt lat="43.22718" lon="6.1432">
        <ele>75.6</ele>
        <time>2021-07-27T10:05:54Z</time>
      </trkpt>
      <trkpt lat="43.22719" lon="6.14321">
        <ele>76.6</ele>
        <time>2021-07-27T10:06:01Z</time>
      </trkpt>
      <trkpt lat="43.2272" lon="6.14322">
        <ele>76.8</ele>
        <time>2021-07-27T10:06:03Z</time>
      </trkpt>
      <trkpt lat="43.22722" lon="6.14324">
        <ele>77.6</ele>
        <time>2021-07-27T10:06:17Z</time>
      </trkpt>
      <trkpt lat="43.22721" lon="6.14323">
        <ele>77.6</ele>
        <time>2021-07-27T10:06:19Z</time>
      </trkpt>
      <trkpt lat="43.22721" lon="6.14322">
        <ele>82.8</ele>
        <time>2021-07-27T10:06:20Z</time>
      </trkpt>
      <trkpt lat="43.22721" lon="6.14321">
        <ele>86.2</ele>
        <time>2021-07-27T10:06:21Z</time>
      </trkpt>
      <trkpt lat="43.22721" lon="6.14321">
        <ele>87.8</ele>
        <time>2021-07-27T10:06:22Z</time>
      </trkpt>
      <trkpt lat="43.22721" lon="6.14321">
        <ele>89</ele>
        <time>2021-07-27T10:06:24Z</time>
      </trkpt>
      <trkpt lat="43.2272" lon="6.14322">
        <ele>90.2</ele>
        <time>2021-07-27T10:06:35Z</time>
      </trkpt>
      <trkpt lat="43.2272" lon="6.14323">
        <ele>90.8</ele>
        <time>2021-07-27T10:06:36Z</time>
      </trkpt>
      <trkpt lat="43.22719" lon="6.14323">
        <ele>89.2</ele>
        <time>2021-07-27T10:06:41Z</time>
      </trkpt>
      <trkpt lat="43.22716" lon="6.14328">
        <ele>89.2</ele>
        <time>2021-07-27T10:06:49Z</time>
      </trkpt>
      <trkpt lat="43.22715" lon="6.14331">
        <ele>89.4</ele>
        <time>2021-07-27T10:07:01Z</time>
      </trkpt>
      <trkpt lat="43.22715" lon="6.14331">
        <ele>86.2</ele>
        <time>2021-07-27T10:07:02Z</time>
      </trkpt>
      <trkpt lat="43.22715" lon="6.14331">
        <ele>86.2</ele>
        <time>2021-07-27T10:07:04Z</time>
      </trkpt>
      <trkpt lat="43.22714" lon="6.14325">
        <ele>77.2</ele>
        <time>2021-07-27T10:07:17Z</time>
      </trkpt>
      <trkpt lat="43.22715" lon="6.14325">
        <ele>72.6</ele>
        <time>2021-07-27T10:07:18Z</time>
      </trkpt>
      <trkpt lat="43.22715" lon="6.14325">
        <ele>70.4</ele>
        <time>2021-07-27T10:07:19Z</time>
      </trkpt>
      <trkpt lat="43.22716" lon="6.14326">
        <ele>69.4</ele>
        <time>2021-07-27T10:07:20Z</time>
      </trkpt>
      <trkpt lat="43.22715" lon="6.1433">
        <ele>68.4</ele>
        <time>2021-07-27T10:07:27Z</time>
      </trkpt>
      <trkpt lat="43.22715" lon="6.14331">
        <ele>68.4</ele>
        <time>2021-07-27T10:07:28Z</time>
      </trkpt>
      <trkpt lat="43.22709" lon="6.14335">
        <ele>67.4</ele>
        <time>2021-07-27T10:07:41Z</time>
      </trkpt>
      <trkpt lat="43.22709" lon="6.14334">
        <ele>67.4</ele>
        <time>2021-07-27T10:07:42Z</time>
      </trkpt>
      <trkpt lat="43.22707" lon="6.14335">
        <ele>67.6</ele>
        <time>2021-07-27T10:07:57Z</time>
      </trkpt>
      <trkpt lat="43.22704" lon="6.14343">
        <ele>66.8</ele>
        <time>2021-07-27T10:08:16Z</time>
      </trkpt>
      <trkpt lat="43.22704" lon="6.14344">
        <ele>66.8</ele>
        <time>2021-07-27T10:08:18Z</time>
      </trkpt>
      <trkpt lat="43.22705" lon="6.14347">
        <ele>66.6</ele>
        <time>2021-07-27T10:08:20Z</time>
      </trkpt>
      <trkpt lat="43.22703" lon="6.14349">
        <ele>66.6</ele>
        <time>2021-07-27T10:08:23Z</time>
      </trkpt>
      <trkpt lat="43.22704" lon="6.14351">
        <ele>66.6</ele>
        <time>2021-07-27T10:08:25Z</time>
      </trkpt>
      <trkpt lat="43.22705" lon="6.14356">
        <ele>66.4</ele>
        <time>2021-07-27T10:08:29Z</time>
      </trkpt>
      <trkpt lat="43.22705" lon="6.14357">
        <ele>66.2</ele>
        <time>2021-07-27T10:08:30Z</time>
      </trkpt>
      <trkpt lat="43.22704" lon="6.1436">
        <ele>66.2</ele>
        <time>2021-07-27T10:08:31Z</time>
      </trkpt>
      <trkpt lat="43.22704" lon="6.14364">
        <ele>66</ele>
        <time>2021-07-27T10:08:33Z</time>
      </trkpt>
      <trkpt lat="43.22704" lon="6.14368">
        <ele>65.8</ele>
        <time>2021-07-27T10:08:35Z</time>
      </trkpt>
      <trkpt lat="43.22703" lon="6.14373">
        <ele>65.8</ele>
        <time>2021-07-27T10:08:38Z</time>
      </trkpt>
      <trkpt lat="43.22701" lon="6.14379">
        <ele>65.6</ele>
        <time>2021-07-27T10:08:40Z</time>
      </trkpt>
      <trkpt lat="43.227" lon="6.14384">
        <ele>65.6</ele>
        <time>2021-07-27T10:08:42Z</time>
      </trkpt>
      <trkpt lat="43.22697" lon="6.14391">
        <ele>65.6</ele>
        <time>2021-07-27T10:08:46Z</time>
      </trkpt>
      <trkpt lat="43.22697" lon="6.14392">
        <ele>65.6</ele>
        <time>2021-07-27T10:08:48Z</time>
      </trkpt>
      <trkpt lat="43.22695" lon="6.14393">
        <ele>65.4</ele>
        <time>2021-07-27T10:08:50Z</time>
      </trkpt>
      <trkpt lat="43.22693" lon="6.14394">
        <ele>65.6</ele>
        <time>2021-07-27T10:08:54Z</time>
      </trkpt>
      <trkpt lat="43.22692" lon="6.14395">
        <ele>65.8</ele>
        <time>2021-07-27T10:08:55Z</time>
      </trkpt>
      <trkpt lat="43.22687" lon="6.14406">
        <ele>65.8</ele>
        <time>2021-07-27T10:09:03Z</time>
      </trkpt>
      <trkpt lat="43.22686" lon="6.1441">
        <ele>65.6</ele>
        <time>2021-07-27T10:09:06Z</time>
      </trkpt>
      <trkpt lat="43.22684" lon="6.1443">
        <ele>65.4</ele>
        <time>2021-07-27T10:09:17Z</time>
      </trkpt>
      <trkpt lat="43.22683" lon="6.14436">
        <ele>65.2</ele>
        <time>2021-07-27T10:09:21Z</time>
      </trkpt>
      <trkpt lat="43.22682" lon="6.14439">
        <ele>65.2</ele>
        <time>2021-07-27T10:09:23Z</time>
      </trkpt>
      <trkpt lat="43.22679" lon="6.14464">
        <ele>64.4</ele>
        <time>2021-07-27T10:09:40Z</time>
      </trkpt>
      <trkpt lat="43.22683" lon="6.14478">
        <ele>64.6</ele>
        <time>2021-07-27T10:09:53Z</time>
      </trkpt>
      <trkpt lat="43.22686" lon="6.14483">
        <ele>64.2</ele>
        <time>2021-07-27T10:09:58Z</time>
      </trkpt>
      <trkpt lat="43.2269" lon="6.14491">
        <ele>63.8</ele>
        <time>2021-07-27T10:10:04Z</time>
      </trkpt>
      <trkpt lat="43.22693" lon="6.14498">
        <ele>63.4</ele>
        <time>2021-07-27T10:10:13Z</time>
      </trkpt>
      <trkpt lat="43.22693" lon="6.14498">
        <ele>63.4</ele>
        <time>2021-07-27T10:10:16Z</time>
      </trkpt>
      <trkpt lat="43.22692" lon="6.14499">
        <ele>63.8</ele>
        <time>2021-07-27T10:10:32Z</time>
      </trkpt>
      <trkpt lat="43.2269" lon="6.14499">
        <ele>63.4</ele>
        <time>2021-07-27T10:10:50Z</time>
      </trkpt>
      <trkpt lat="43.2269" lon="6.14497">
        <ele>63</ele>
        <time>2021-07-27T10:11:00Z</time>
      </trkpt>
      <trkpt lat="43.22689" lon="6.14497">
        <ele>62.6</ele>
        <time>2021-07-27T10:11:10Z</time>
      </trkpt>
      <trkpt lat="43.22689" lon="6.14497">
        <ele>62.6</ele>
        <time>2021-07-27T10:11:28Z</time>
      </trkpt>
      <trkpt lat="43.22691" lon="6.145">
        <ele>63.6</ele>
        <time>2021-07-27T10:11:49Z</time>
      </trkpt>
      <trkpt lat="43.2269" lon="6.14499">
        <ele>63.8</ele>
        <time>2021-07-27T10:12:07Z</time>
      </trkpt>
      <trkpt lat="43.2269" lon="6.14497">
        <ele>62.6</ele>
        <time>2021-07-27T10:12:24Z</time>
      </trkpt>
      <trkpt lat="43.22688" lon="6.14491">
        <ele>62.8</ele>
        <time>2021-07-27T10:12:43Z</time>
      </trkpt>
      <trkpt lat="43.22684" lon="6.14479">
        <ele>62.8</ele>
        <time>2021-07-27T10:12:54Z</time>
      </trkpt>
      <trkpt lat="43.22676" lon="6.14477">
        <ele>62.6</ele>
        <time>2021-07-27T10:13:02Z</time>
      </trkpt>
      <trkpt lat="43.22669" lon="6.14486">
        <ele>62</ele>
        <time>2021-07-27T10:13:12Z</time>
      </trkpt>
      <trkpt lat="43.22669" lon="6.14489">
        <ele>61.8</ele>
        <time>2021-07-27T10:13:14Z</time>
      </trkpt>
      <trkpt lat="43.22669" lon="6.1449">
        <ele>61.4</ele>
        <time>2021-07-27T10:13:17Z</time>
      </trkpt>
      <trkpt lat="43.2267" lon="6.1449">
        <ele>61.6</ele>
        <time>2021-07-27T10:13:19Z</time>
      </trkpt>
      <trkpt lat="43.2267" lon="6.1449">
        <ele>61.6</ele>
        <time>2021-07-27T10:13:21Z</time>
      </trkpt>
      <trkpt lat="43.22669" lon="6.14498">
        <ele>60.8</ele>
        <time>2021-07-27T10:13:30Z</time>
      </trkpt>
      <trkpt lat="43.2267" lon="6.14499">
        <ele>60.6</ele>
        <time>2021-07-27T10:13:31Z</time>
      </trkpt>
      <trkpt lat="43.22666" lon="6.14512">
        <ele>60.4</ele>
        <time>2021-07-27T10:13:44Z</time>
      </trkpt>
      <trkpt lat="43.2266" lon="6.14506">
        <ele>59.6</ele>
        <time>2021-07-27T10:13:54Z</time>
      </trkpt>
      <trkpt lat="43.22651" lon="6.14499">
        <ele>60.2</ele>
        <time>2021-07-27T10:14:09Z</time>
      </trkpt>
      <trkpt lat="43.22651" lon="6.14497">
        <ele>60</ele>
        <time>2021-07-27T10:14:16Z</time>
      </trkpt>
      <trkpt lat="43.22652" lon="6.14497">
        <ele>59.8</ele>
        <time>2021-07-27T10:14:19Z</time>
      </trkpt>
      <trkpt lat="43.22653" lon="6.14498">
        <ele>60</ele>
        <time>2021-07-27T10:14:31Z</time>
      </trkpt>
      <trkpt lat="43.22652" lon="6.14497">
        <ele>59.4</ele>
        <time>2021-07-27T10:14:47Z</time>
      </trkpt>
      <trkpt lat="43.22653" lon="6.14496">
        <ele>59.4</ele>
        <time>2021-07-27T10:15:02Z</time>
      </trkpt>
      <trkpt lat="43.22653" lon="6.14496">
        <ele>59.4</ele>
        <time>2021-07-27T10:15:14Z</time>
      </trkpt>
      <trkpt lat="43.22657" lon="6.14498">
        <ele>59.2</ele>
        <time>2021-07-27T10:15:32Z</time>
      </trkpt>
      <trkpt lat="43.22659" lon="6.14492">
        <ele>59</ele>
        <time>2021-07-27T10:15:46Z</time>
      </trkpt>
      <trkpt lat="43.22657" lon="6.14492">
        <ele>59</ele>
        <time>2021-07-27T10:16:01Z</time>
      </trkpt>
      <trkpt lat="43.22657" lon="6.14494">
        <ele>59.2</ele>
        <time>2021-07-27T10:16:12Z</time>
      </trkpt>
      <trkpt lat="43.22653" lon="6.14497">
        <ele>59.4</ele>
        <time>2021-07-27T10:16:25Z</time>
      </trkpt>
      <trkpt lat="43.22656" lon="6.14494">
        <ele>59.2</ele>
        <time>2021-07-27T10:16:42Z</time>
      </trkpt>
      <trkpt lat="43.22656" lon="6.14495">
        <ele>59.2</ele>
        <time>2021-07-27T10:16:57Z</time>
      </trkpt>
      <trkpt lat="43.22653" lon="6.14497">
        <ele>59.2</ele>
        <time>2021-07-27T10:17:13Z</time>
      </trkpt>
      <trkpt lat="43.22655" lon="6.14491">
        <ele>59.2</ele>
        <time>2021-07-27T10:17:32Z</time>
      </trkpt>
      <trkpt lat="43.22656" lon="6.14491">
        <ele>59.2</ele>
        <time>2021-07-27T10:17:43Z</time>
      </trkpt>
      <trkpt lat="43.22657" lon="6.14493">
        <ele>59.2</ele>
        <time>2021-07-27T10:17:55Z</time>
      </trkpt>
      <trkpt lat="43.22658" lon="6.14493">
        <ele>59.2</ele>
        <time>2021-07-27T10:18:08Z</time>
      </trkpt>
      <trkpt lat="43.22658" lon="6.14493">
        <ele>59.2</ele>
        <time>2021-07-27T10:18:21Z</time>
      </trkpt>
      <trkpt lat="43.22657" lon="6.14496">
        <ele>59.2</ele>
        <time>2021-07-27T10:18:36Z</time>
      </trkpt>
      <trkpt lat="43.22658" lon="6.14497">
        <ele>59.2</ele>
        <time>2021-07-27T10:18:50Z</time>
      </trkpt>
      <trkpt lat="43.22659" lon="6.14498">
        <ele>59.2</ele>
        <time>2021-07-27T10:19:03Z</time>
      </trkpt>
      <trkpt lat="43.22661" lon="6.14496">
        <ele>59.2</ele>
        <time>2021-07-27T10:19:15Z</time>
      </trkpt>
      <trkpt lat="43.22661" lon="6.14494">
        <ele>59.2</ele>
        <time>2021-07-27T10:19:31Z</time>
      </trkpt>
      <trkpt lat="43.2266" lon="6.14494">
        <ele>59.2</ele>
        <time>2021-07-27T10:19:46Z</time>
      </trkpt>
      <trkpt lat="43.22658" lon="6.14492">
        <ele>59.2</ele>
        <time>2021-07-27T10:20:01Z</time>
      </trkpt>
      <trkpt lat="43.22658" lon="6.1449">
        <ele>59.2</ele>
        <time>2021-07-27T10:20:13Z</time>
      </trkpt>
      <trkpt lat="43.22655" lon="6.14489">
        <ele>59.2</ele>
        <time>2021-07-27T10:20:28Z</time>
      </trkpt>
      <trkpt lat="43.22655" lon="6.1449">
        <ele>59.2</ele>
        <time>2021-07-27T10:20:44Z</time>
      </trkpt>
      <trkpt lat="43.22654" lon="6.14491">
        <ele>59.2</ele>
        <time>2021-07-27T10:21:05Z</time>
      </trkpt>
      <trkpt lat="43.22653" lon="6.14492">
        <ele>59.2</ele>
        <time>2021-07-27T10:21:21Z</time>
      </trkpt>
      <trkpt lat="43.22651" lon="6.14494">
        <ele>59.2</ele>
        <time>2021-07-27T10:21:38Z</time>
      </trkpt>
      <trkpt lat="43.22651" lon="6.14496">
        <ele>59.2</ele>
        <time>2021-07-27T10:21:49Z</time>
      </trkpt>
      <trkpt lat="43.22651" lon="6.14496">
        <ele>59.2</ele>
        <time>2021-07-27T10:22:00Z</time>
      </trkpt>
      <trkpt lat="43.22653" lon="6.14494">
        <ele>59.2</ele>
        <time>2021-07-27T10:22:18Z</time>
      </trkpt>
      <trkpt lat="43.22654" lon="6.14498">
        <ele>59.2</ele>
        <time>2021-07-27T10:22:28Z</time>
      </trkpt>
      <trkpt lat="43.22649" lon="6.1451">
        <ele>59.2</ele>
        <time>2021-07-27T10:22:36Z</time>
      </trkpt>
      <trkpt lat="43.22646" lon="6.14518">
        <ele>59.4</ele>
        <time>2021-07-27T10:22:44Z</time>
      </trkpt>
      <trkpt lat="43.22638" lon="6.14527">
        <ele>59.4</ele>
        <time>2021-07-27T10:22:54Z</time>
      </trkpt>
      <trkpt lat="43.22636" lon="6.1453">
        <ele>59</ele>
        <time>2021-07-27T10:22:58Z</time>
      </trkpt>
      <trkpt lat="43.22634" lon="6.14531">
        <ele>59</ele>
        <time>2021-07-27T10:23:00Z</time>
      </trkpt>
      <trkpt lat="43.22632" lon="6.14531">
        <ele>58.6</ele>
        <time>2021-07-27T10:23:02Z</time>
      </trkpt>
      <trkpt lat="43.2263" lon="6.14532">
        <ele>58.2</ele>
        <time>2021-07-27T10:23:04Z</time>
      </trkpt>
      <trkpt lat="43.22629" lon="6.14533">
        <ele>58.2</ele>
        <time>2021-07-27T10:23:05Z</time>
      </trkpt>
      <trkpt lat="43.22628" lon="6.14533">
        <ele>58.2</ele>
        <time>2021-07-27T10:23:06Z</time>
      </trkpt>
      <trkpt lat="43.22625" lon="6.14538">
        <ele>58</ele>
        <time>2021-07-27T10:23:09Z</time>
      </trkpt>
      <trkpt lat="43.22617" lon="6.14553">
        <ele>57.6</ele>
        <time>2021-07-27T10:23:16Z</time>
      </trkpt>
      <trkpt lat="43.2261" lon="6.14558">
        <ele>57.6</ele>
        <time>2021-07-27T10:23:24Z</time>
      </trkpt>
      <trkpt lat="43.22606" lon="6.1456">
        <ele>57.2</ele>
        <time>2021-07-27T10:23:27Z</time>
      </trkpt>
      <trkpt lat="43.22589" lon="6.1457">
        <ele>57</ele>
        <time>2021-07-27T10:23:42Z</time>
      </trkpt>
      <trkpt lat="43.22588" lon="6.1457">
        <ele>56.8</ele>
        <time>2021-07-27T10:23:44Z</time>
      </trkpt>
      <trkpt lat="43.22582" lon="6.14568">
        <ele>56.6</ele>
        <time>2021-07-27T10:23:50Z</time>
      </trkpt>
      <trkpt lat="43.22572" lon="6.14561">
        <ele>55.8</ele>
        <time>2021-07-27T10:23:56Z</time>
      </trkpt>
      <trkpt lat="43.22565" lon="6.14558">
        <ele>55.4</ele>
        <time>2021-07-27T10:24:02Z</time>
      </trkpt>
      <trkpt lat="43.2256" lon="6.14548">
        <ele>55.6</ele>
        <time>2021-07-27T10:24:11Z</time>
      </trkpt>
      <trkpt lat="43.2255" lon="6.14537">
        <ele>54.6</ele>
        <time>2021-07-27T10:24:26Z</time>
      </trkpt>
      <trkpt lat="43.22547" lon="6.14537">
        <ele>54.4</ele>
        <time>2021-07-27T10:24:28Z</time>
      </trkpt>
      <trkpt lat="43.22543" lon="6.14532">
        <ele>54.2</ele>
        <time>2021-07-27T10:24:36Z</time>
      </trkpt>
      <trkpt lat="43.22541" lon="6.14532">
        <ele>54</ele>
        <time>2021-07-27T10:24:37Z</time>
      </trkpt>
      <trkpt lat="43.22541" lon="6.14531">
        <ele>54</ele>
        <time>2021-07-27T10:24:38Z</time>
      </trkpt>
      <trkpt lat="43.22537" lon="6.14526">
        <ele>54</ele>
        <time>2021-07-27T10:24:42Z</time>
      </trkpt>
      <trkpt lat="43.22535" lon="6.14525">
        <ele>53.8</ele>
        <time>2021-07-27T10:24:44Z</time>
      </trkpt>
      <trkpt lat="43.22531" lon="6.14524">
        <ele>53.8</ele>
        <time>2021-07-27T10:24:46Z</time>
      </trkpt>
      <trkpt lat="43.22528" lon="6.14525">
        <ele>53.8</ele>
        <time>2021-07-27T10:24:48Z</time>
      </trkpt>
      <trkpt lat="43.22526" lon="6.14525">
        <ele>53.4</ele>
        <time>2021-07-27T10:24:49Z</time>
      </trkpt>
      <trkpt lat="43.22513" lon="6.14526">
        <ele>52.8</ele>
        <time>2021-07-27T10:24:59Z</time>
      </trkpt>
      <trkpt lat="43.22507" lon="6.14527">
        <ele>52.2</ele>
        <time>2021-07-27T10:25:05Z</time>
      </trkpt>
      <trkpt lat="43.22496" lon="6.14533">
        <ele>51.8</ele>
        <time>2021-07-27T10:25:14Z</time>
      </trkpt>
      <trkpt lat="43.22485" lon="6.14545">
        <ele>51.4</ele>
        <time>2021-07-27T10:25:27Z</time>
      </trkpt>
      <trkpt lat="43.22481" lon="6.14548">
        <ele>51.2</ele>
        <time>2021-07-27T10:25:31Z</time>
      </trkpt>
      <trkpt lat="43.22479" lon="6.14549">
        <ele>49.8</ele>
        <time>2021-07-27T10:25:34Z</time>
      </trkpt>
      <trkpt lat="43.22469" lon="6.14559">
        <ele>49.4</ele>
        <time>2021-07-27T10:25:46Z</time>
      </trkpt>
      <trkpt lat="43.22465" lon="6.14565">
        <ele>48.8</ele>
        <time>2021-07-27T10:25:50Z</time>
      </trkpt>
      <trkpt lat="43.22456" lon="6.14576">
        <ele>49.6</ele>
        <time>2021-07-27T10:26:00Z</time>
      </trkpt>
      <trkpt lat="43.22445" lon="6.14592">
        <ele>49</ele>
        <time>2021-07-27T10:26:14Z</time>
      </trkpt>
      <trkpt lat="43.22435" lon="6.14604">
        <ele>48.4</ele>
        <time>2021-07-27T10:26:26Z</time>
      </trkpt>
      <trkpt lat="43.22421" lon="6.14616">
        <ele>48</ele>
        <time>2021-07-27T10:26:39Z</time>
      </trkpt>
      <trkpt lat="43.22418" lon="6.1462">
        <ele>47.8</ele>
        <time>2021-07-27T10:26:43Z</time>
      </trkpt>
      <trkpt lat="43.22412" lon="6.14628">
        <ele>46.6</ele>
        <time>2021-07-27T10:26:51Z</time>
      </trkpt>
      <trkpt lat="43.22408" lon="6.14629">
        <ele>46.4</ele>
        <time>2021-07-27T10:26:54Z</time>
      </trkpt>
      <trkpt lat="43.22396" lon="6.14626">
        <ele>46</ele>
        <time>2021-07-27T10:27:06Z</time>
      </trkpt>
      <trkpt lat="43.22392" lon="6.14625">
        <ele>45.6</ele>
        <time>2021-07-27T10:27:10Z</time>
      </trkpt>
      <trkpt lat="43.2238" lon="6.14621">
        <ele>44.8</ele>
        <time>2021-07-27T10:27:20Z</time>
      </trkpt>
      <trkpt lat="43.22374" lon="6.14619">
        <ele>44.6</ele>
        <time>2021-07-27T10:27:26Z</time>
      </trkpt>
      <trkpt lat="43.22364" lon="6.14618">
        <ele>43.8</ele>
        <time>2021-07-27T10:27:35Z</time>
      </trkpt>
      <trkpt lat="43.22357" lon="6.14616">
        <ele>43.6</ele>
        <time>2021-07-27T10:27:43Z</time>
      </trkpt>
      <trkpt lat="43.22352" lon="6.14613">
        <ele>43.2</ele>
        <time>2021-07-27T10:27:48Z</time>
      </trkpt>
      <trkpt lat="43.22343" lon="6.14611">
        <ele>42.4</ele>
        <time>2021-07-27T10:27:57Z</time>
      </trkpt>
      <trkpt lat="43.22343" lon="6.14611">
        <ele>42.4</ele>
        <time>2021-07-27T10:27:59Z</time>
      </trkpt>
      <trkpt lat="43.22342" lon="6.14611">
        <ele>42.4</ele>
        <time>2021-07-27T10:28:00Z</time>
      </trkpt>
      <trkpt lat="43.22342" lon="6.14611">
        <ele>42.2</ele>
        <time>2021-07-27T10:28:01Z</time>
      </trkpt>
      <trkpt lat="43.22341" lon="6.14612">
        <ele>41.8</ele>
        <time>2021-07-27T10:28:05Z</time>
      </trkpt>
      <trkpt lat="43.22346" lon="6.14615">
        <ele>41.6</ele>
        <time>2021-07-27T10:28:12Z</time>
      </trkpt>
      <trkpt lat="43.22364" lon="6.14621">
        <ele>43.4</ele>
        <time>2021-07-27T10:28:27Z</time>
      </trkpt>
      <trkpt lat="43.22365" lon="6.14621">
        <ele>43.4</ele>
        <time>2021-07-27T10:28:28Z</time>
      </trkpt>
      <trkpt lat="43.22366" lon="6.14622">
        <ele>43.6</ele>
        <time>2021-07-27T10:28:30Z</time>
      </trkpt>
      <trkpt lat="43.22377" lon="6.14628">
        <ele>43.8</ele>
        <time>2021-07-27T10:28:41Z</time>
      </trkpt>
      <trkpt lat="43.22386" lon="6.1463">
        <ele>44.6</ele>
        <time>2021-07-27T10:28:48Z</time>
      </trkpt>
      <trkpt lat="43.22392" lon="6.14631">
        <ele>44.8</ele>
        <time>2021-07-27T10:28:53Z</time>
      </trkpt>
      <trkpt lat="43.22404" lon="6.14631">
        <ele>45.6</ele>
        <time>2021-07-27T10:29:03Z</time>
      </trkpt>
      <trkpt lat="43.22408" lon="6.14631">
        <ele>46.4</ele>
        <time>2021-07-27T10:29:07Z</time>
      </trkpt>
      <trkpt lat="43.22413" lon="6.1463">
        <ele>46.6</ele>
        <time>2021-07-27T10:29:11Z</time>
      </trkpt>
      <trkpt lat="43.22423" lon="6.14624">
        <ele>47.2</ele>
        <time>2021-07-27T10:29:20Z</time>
      </trkpt>
      <trkpt lat="43.22429" lon="6.14619">
        <ele>47.8</ele>
        <time>2021-07-27T10:29:26Z</time>
      </trkpt>
      <trkpt lat="43.22437" lon="6.14611">
        <ele>48.2</ele>
        <time>2021-07-27T10:29:35Z</time>
      </trkpt>
      <trkpt lat="43.22442" lon="6.14604">
        <ele>49</ele>
        <time>2021-07-27T10:29:41Z</time>
      </trkpt>
      <trkpt lat="43.22445" lon="6.14593">
        <ele>49</ele>
        <time>2021-07-27T10:29:48Z</time>
      </trkpt>
      <trkpt lat="43.22449" lon="6.14577">
        <ele>49.6</ele>
        <time>2021-07-27T10:30:03Z</time>
      </trkpt>
      <trkpt lat="43.22449" lon="6.14575">
        <ele>50</ele>
        <time>2021-07-27T10:30:05Z</time>
      </trkpt>
      <trkpt lat="43.22451" lon="6.14564">
        <ele>50.4</ele>
        <time>2021-07-27T10:30:13Z</time>
      </trkpt>
      <trkpt lat="43.22459" lon="6.1455">
        <ele>50</ele>
        <time>2021-07-27T10:30:25Z</time>
      </trkpt>
      <trkpt lat="43.22465" lon="6.14535">
        <ele>49.4</ele>
        <time>2021-07-27T10:30:39Z</time>
      </trkpt>
      <trkpt lat="43.22477" lon="6.14512">
        <ele>49.4</ele>
        <time>2021-07-27T10:30:55Z</time>
      </trkpt>
      <trkpt lat="43.22482" lon="6.14506">
        <ele>49</ele>
        <time>2021-07-27T10:31:01Z</time>
      </trkpt>
      <trkpt lat="43.22488" lon="6.14497">
        <ele>48.6</ele>
        <time>2021-07-27T10:31:10Z</time>
      </trkpt>
      <trkpt lat="43.22492" lon="6.14492">
        <ele>47.8</ele>
        <time>2021-07-27T10:31:15Z</time>
      </trkpt>
      <trkpt lat="43.22501" lon="6.14482">
        <ele>47.6</ele>
        <time>2021-07-27T10:31:25Z</time>
      </trkpt>
      <trkpt lat="43.22508" lon="6.14474">
        <ele>46.8</ele>
        <time>2021-07-27T10:31:35Z</time>
      </trkpt>
      <trkpt lat="43.22512" lon="6.14468">
        <ele>46.2</ele>
        <time>2021-07-27T10:31:41Z</time>
      </trkpt>
      <trkpt lat="43.22515" lon="6.14463">
        <ele>45.8</ele>
        <time>2021-07-27T10:31:47Z</time>
      </trkpt>
      <trkpt lat="43.22524" lon="6.14451">
        <ele>44.8</ele>
        <time>2021-07-27T10:31:57Z</time>
      </trkpt>
      <trkpt lat="43.22527" lon="6.14449">
        <ele>44.6</ele>
        <time>2021-07-27T10:31:59Z</time>
      </trkpt>
      <trkpt lat="43.22531" lon="6.14442">
        <ele>43.6</ele>
        <time>2021-07-27T10:32:06Z</time>
      </trkpt>
      <trkpt lat="43.22532" lon="6.14441">
        <ele>43.4</ele>
        <time>2021-07-27T10:32:09Z</time>
      </trkpt>
      <trkpt lat="43.22533" lon="6.1444">
        <ele>43.2</ele>
        <time>2021-07-27T10:32:11Z</time>
      </trkpt>
      <trkpt lat="43.22534" lon="6.1444">
        <ele>43</ele>
        <time>2021-07-27T10:32:12Z</time>
      </trkpt>
      <trkpt lat="43.22538" lon="6.14441">
        <ele>43</ele>
        <time>2021-07-27T10:32:15Z</time>
      </trkpt>
      <trkpt lat="43.22541" lon="6.14443">
        <ele>43</ele>
        <time>2021-07-27T10:32:19Z</time>
      </trkpt>
      <trkpt lat="43.22542" lon="6.14443">
        <ele>43</ele>
        <time>2021-07-27T10:32:21Z</time>
      </trkpt>
      <trkpt lat="43.22547" lon="6.14446">
        <ele>43.2</ele>
        <time>2021-07-27T10:32:27Z</time>
      </trkpt>
      <trkpt lat="43.22557" lon="6.14454">
        <ele>44.4</ele>
        <time>2021-07-27T10:32:37Z</time>
      </trkpt>
      <trkpt lat="43.22572" lon="6.14464">
        <ele>44.6</ele>
        <time>2021-07-27T10:32:47Z</time>
      </trkpt>
      <trkpt lat="43.22572" lon="6.14465">
        <ele>44.8</ele>
        <time>2021-07-27T10:32:48Z</time>
      </trkpt>
      <trkpt lat="43.22585" lon="6.14479">
        <ele>45.8</ele>
        <time>2021-07-27T10:33:02Z</time>
      </trkpt>
      <trkpt lat="43.22587" lon="6.1448">
        <ele>46</ele>
        <time>2021-07-27T10:33:04Z</time>
      </trkpt>
      <trkpt lat="43.22596" lon="6.1449">
        <ele>46.8</ele>
        <time>2021-07-27T10:33:16Z</time>
      </trkpt>
      <trkpt lat="43.226" lon="6.1449">
        <ele>47</ele>
        <time>2021-07-27T10:33:19Z</time>
      </trkpt>
      <trkpt lat="43.22608" lon="6.14486">
        <ele>47.8</ele>
        <time>2021-07-27T10:33:27Z</time>
      </trkpt>
      <trkpt lat="43.22609" lon="6.14485">
        <ele>47.8</ele>
        <time>2021-07-27T10:33:28Z</time>
      </trkpt>
      <trkpt lat="43.2261" lon="6.14484">
        <ele>48</ele>
        <time>2021-07-27T10:33:29Z</time>
      </trkpt>
      <trkpt lat="43.22618" lon="6.14476">
        <ele>49</ele>
        <time>2021-07-27T10:33:40Z</time>
      </trkpt>
      <trkpt lat="43.2262" lon="6.14474">
        <ele>49.2</ele>
        <time>2021-07-27T10:33:43Z</time>
      </trkpt>
      <trkpt lat="43.22623" lon="6.14465">
        <ele>50</ele>
        <time>2021-07-27T10:33:49Z</time>
      </trkpt>
      <trkpt lat="43.22627" lon="6.14459">
        <ele>50.8</ele>
        <time>2021-07-27T10:33:55Z</time>
      </trkpt>
      <trkpt lat="43.22629" lon="6.14457">
        <ele>51.2</ele>
        <time>2021-07-27T10:33:59Z</time>
      </trkpt>
      <trkpt lat="43.22633" lon="6.14449">
        <ele>52</ele>
        <time>2021-07-27T10:34:09Z</time>
      </trkpt>
      <trkpt lat="43.22633" lon="6.14448">
        <ele>52.2</ele>
        <time>2021-07-27T10:34:10Z</time>
      </trkpt>
      <trkpt lat="43.22636" lon="6.14449">
        <ele>53.2</ele>
        <time>2021-07-27T10:34:20Z</time>
      </trkpt>
      <trkpt lat="43.22637" lon="6.1445">
        <ele>53.4</ele>
        <time>2021-07-27T10:34:21Z</time>
      </trkpt>
      <trkpt lat="43.22639" lon="6.14447">
        <ele>53.4</ele>
        <time>2021-07-27T10:34:32Z</time>
      </trkpt>
      <trkpt lat="43.22641" lon="6.14436">
        <ele>53.6</ele>
        <time>2021-07-27T10:34:40Z</time>
      </trkpt>
      <trkpt lat="43.22642" lon="6.14432">
        <ele>54</ele>
        <time>2021-07-27T10:34:43Z</time>
      </trkpt>
      <trkpt lat="43.22643" lon="6.14429">
        <ele>54.2</ele>
        <time>2021-07-27T10:34:45Z</time>
      </trkpt>
      <trkpt lat="43.22644" lon="6.14429">
        <ele>54.4</ele>
        <time>2021-07-27T10:34:46Z</time>
      </trkpt>
      <trkpt lat="43.22649" lon="6.14421">
        <ele>55.4</ele>
        <time>2021-07-27T10:34:53Z</time>
      </trkpt>
      <trkpt lat="43.22658" lon="6.14416">
        <ele>56.4</ele>
        <time>2021-07-27T10:35:01Z</time>
      </trkpt>
      <trkpt lat="43.22663" lon="6.14415">
        <ele>56.6</ele>
        <time>2021-07-27T10:35:04Z</time>
      </trkpt>
      <trkpt lat="43.22673" lon="6.1441">
        <ele>57.6</ele>
        <time>2021-07-27T10:35:12Z</time>
      </trkpt>
      <trkpt lat="43.22673" lon="6.14407">
        <ele>58.6</ele>
        <time>2021-07-27T10:35:15Z</time>
      </trkpt>
      <trkpt lat="43.22675" lon="6.14405">
        <ele>58.8</ele>
        <time>2021-07-27T10:35:18Z</time>
      </trkpt>
      <trkpt lat="43.22675" lon="6.14404">
        <ele>59</ele>
        <time>2021-07-27T10:35:19Z</time>
      </trkpt>
      <trkpt lat="43.22678" lon="6.14397">
        <ele>59.2</ele>
        <time>2021-07-27T10:35:25Z</time>
      </trkpt>
      <trkpt lat="43.22678" lon="6.14393">
        <ele>59.6</ele>
        <time>2021-07-27T10:35:28Z</time>
      </trkpt>
      <trkpt lat="43.22679" lon="6.14392">
        <ele>59.8</ele>
        <time>2021-07-27T10:35:29Z</time>
      </trkpt>
      <trkpt lat="43.2268" lon="6.14388">
        <ele>60.2</ele>
        <time>2021-07-27T10:35:31Z</time>
      </trkpt>
      <trkpt lat="43.22682" lon="6.14385">
        <ele>61</ele>
        <time>2021-07-27T10:35:34Z</time>
      </trkpt>
      <trkpt lat="43.22683" lon="6.14384">
        <ele>61.2</ele>
        <time>2021-07-27T10:35:35Z</time>
      </trkpt>
      <trkpt lat="43.22686" lon="6.1437">
        <ele>62</ele>
        <time>2021-07-27T10:35:46Z</time>
      </trkpt>
      <trkpt lat="43.22687" lon="6.14369">
        <ele>62.2</ele>
        <time>2021-07-27T10:35:48Z</time>
      </trkpt>
      <trkpt lat="43.22687" lon="6.14367">
        <ele>62.4</ele>
        <time>2021-07-27T10:35:50Z</time>
      </trkpt>
      <trkpt lat="43.22689" lon="6.14363">
        <ele>62.6</ele>
        <time>2021-07-27T10:35:54Z</time>
      </trkpt>
      <trkpt lat="43.22691" lon="6.14359">
        <ele>62.8</ele>
        <time>2021-07-27T10:35:59Z</time>
      </trkpt>
      <trkpt lat="43.22691" lon="6.14357">
        <ele>63</ele>
        <time>2021-07-27T10:36:01Z</time>
      </trkpt>
      <trkpt lat="43.22692" lon="6.14357">
        <ele>63</ele>
        <time>2021-07-27T10:36:02Z</time>
      </trkpt>
      <trkpt lat="43.22692" lon="6.14357">
        <ele>63.8</ele>
        <time>2021-07-27T10:36:04Z</time>
      </trkpt>
      <trkpt lat="43.22693" lon="6.14353">
        <ele>64.8</ele>
        <time>2021-07-27T10:36:11Z</time>
      </trkpt>
      <trkpt lat="43.22694" lon="6.1435">
        <ele>64.8</ele>
        <time>2021-07-27T10:36:14Z</time>
      </trkpt>
      <trkpt lat="43.22697" lon="6.14342">
        <ele>66</ele>
        <time>2021-07-27T10:36:24Z</time>
      </trkpt>
      <trkpt lat="43.22698" lon="6.14336">
        <ele>66.8</ele>
        <time>2021-07-27T10:36:30Z</time>
      </trkpt>
      <trkpt lat="43.22699" lon="6.14336">
        <ele>67</ele>
        <time>2021-07-27T10:36:32Z</time>
      </trkpt>
      <trkpt lat="43.22705" lon="6.14332">
        <ele>66.8</ele>
        <time>2021-07-27T10:36:46Z</time>
      </trkpt>
      <trkpt lat="43.2271" lon="6.14331">
        <ele>66.8</ele>
        <time>2021-07-27T10:37:03Z</time>
      </trkpt>
      <trkpt lat="43.22713" lon="6.14331">
        <ele>66.6</ele>
        <time>2021-07-27T10:37:19Z</time>
      </trkpt>
      <trkpt lat="43.22709" lon="6.14335">
        <ele>66.8</ele>
        <time>2021-07-27T10:37:34Z</time>
      </trkpt>
      <trkpt lat="43.22706" lon="6.1434">
        <ele>66.6</ele>
        <time>2021-07-27T10:37:53Z</time>
      </trkpt>
      <trkpt lat="43.22707" lon="6.14333">
        <ele>66.6</ele>
        <time>2021-07-27T10:38:07Z</time>
      </trkpt>
      <trkpt lat="43.22712" lon="6.14335">
        <ele>66.4</ele>
        <time>2021-07-27T10:38:20Z</time>
      </trkpt>
      <trkpt lat="43.2271" lon="6.14327">
        <ele>66.4</ele>
        <time>2021-07-27T10:38:33Z</time>
      </trkpt>
      <trkpt lat="43.22712" lon="6.14323">
        <ele>66.4</ele>
        <time>2021-07-27T10:38:47Z</time>
      </trkpt>
      <trkpt lat="43.22707" lon="6.14321">
        <ele>66.4</ele>
        <time>2021-07-27T10:39:02Z</time>
      </trkpt>
      <trkpt lat="43.2271" lon="6.14316">
        <ele>66.4</ele>
        <time>2021-07-27T10:39:11Z</time>
      </trkpt>
      <trkpt lat="43.22713" lon="6.14313">
        <ele>66.4</ele>
        <time>2021-07-27T10:39:24Z</time>
      </trkpt>
      <trkpt lat="43.22716" lon="6.14307">
        <ele>66.4</ele>
        <time>2021-07-27T10:39:36Z</time>
      </trkpt>
      <trkpt lat="43.2272" lon="6.14302">
        <ele>66.4</ele>
        <time>2021-07-27T10:39:46Z</time>
      </trkpt>
      <trkpt lat="43.2273" lon="6.14304">
        <ele>66.4</ele>
        <time>2021-07-27T10:39:56Z</time>
      </trkpt>
      <trkpt lat="43.22743" lon="6.14312">
        <ele>66.8</ele>
        <time>2021-07-27T10:40:08Z</time>
      </trkpt>
      <trkpt lat="43.22753" lon="6.14318">
        <ele>66</ele>
        <time>2021-07-27T10:40:18Z</time>
      </trkpt>
      <trkpt lat="43.22754" lon="6.1432">
        <ele>66</ele>
        <time>2021-07-27T10:40:21Z</time>
      </trkpt>
      <trkpt lat="43.2276" lon="6.14317">
        <ele>66.4</ele>
        <time>2021-07-27T10:40:27Z</time>
      </trkpt>
      <trkpt lat="43.22761" lon="6.1431">
        <ele>66.6</ele>
        <time>2021-07-27T10:40:31Z</time>
      </trkpt>
      <trkpt lat="43.22762" lon="6.14296">
        <ele>66.4</ele>
        <time>2021-07-27T10:40:39Z</time>
      </trkpt>
      <trkpt lat="43.22763" lon="6.14285">
        <ele>66.2</ele>
        <time>2021-07-27T10:40:48Z</time>
      </trkpt>
      <trkpt lat="43.22763" lon="6.14279">
        <ele>66.2</ele>
        <time>2021-07-27T10:40:51Z</time>
      </trkpt>
      <trkpt lat="43.22761" lon="6.14259">
        <ele>65.8</ele>
        <time>2021-07-27T10:41:04Z</time>
      </trkpt>
      <trkpt lat="43.22761" lon="6.14235">
        <ele>66</ele>
        <time>2021-07-27T10:41:19Z</time>
      </trkpt>
      <trkpt lat="43.22759" lon="6.14215">
        <ele>66.2</ele>
        <time>2021-07-27T10:41:31Z</time>
      </trkpt>
      <trkpt lat="43.22765" lon="6.14205">
        <ele>66.2</ele>
        <time>2021-07-27T10:41:39Z</time>
      </trkpt>
      <trkpt lat="43.22769" lon="6.14194">
        <ele>66.4</ele>
        <time>2021-07-27T10:41:49Z</time>
      </trkpt>
      <trkpt lat="43.22768" lon="6.1419">
        <ele>66.4</ele>
        <time>2021-07-27T10:41:52Z</time>
      </trkpt>
      <trkpt lat="43.22768" lon="6.14176">
        <ele>66.8</ele>
        <time>2021-07-27T10:42:00Z</time>
      </trkpt>
      <trkpt lat="43.2277" lon="6.14173">
        <ele>67</ele>
        <time>2021-07-27T10:42:05Z</time>
      </trkpt>
      <trkpt lat="43.2277" lon="6.14173">
        <ele>66.6</ele>
        <time>2021-07-27T10:42:09Z</time>
      </trkpt>
      <trkpt lat="43.2277" lon="6.14172">
        <ele>66.4</ele>
        <time>2021-07-27T10:42:20Z</time>
      </trkpt>
      <trkpt lat="43.22771" lon="6.1417">
        <ele>67</ele>
        <time>2021-07-27T10:42:26Z</time>
      </trkpt>
      <trkpt lat="43.22772" lon="6.1417">
        <ele>67.2</ele>
        <time>2021-07-27T10:42:30Z</time>
      </trkpt>
      <trkpt lat="43.22771" lon="6.14172">
        <ele>66.8</ele>
        <time>2021-07-27T10:42:43Z</time>
      </trkpt>
      <trkpt lat="43.2277" lon="6.14171">
        <ele>67</ele>
        <time>2021-07-27T10:42:57Z</time>
      </trkpt>
      <trkpt lat="43.22771" lon="6.14172">
        <ele>67</ele>
        <time>2021-07-27T10:43:12Z</time>
      </trkpt>
      <trkpt lat="43.22768" lon="6.14176">
        <ele>67</ele>
        <time>2021-07-27T10:43:25Z</time>
      </trkpt>
      <trkpt lat="43.22766" lon="6.14166">
        <ele>67.2</ele>
        <time>2021-07-27T10:43:31Z</time>
      </trkpt>
      <trkpt lat="43.22765" lon="6.14138">
        <ele>68.2</ele>
        <time>2021-07-27T10:43:35Z</time>
      </trkpt>
      <trkpt lat="43.22766" lon="6.14123">
        <ele>68.8</ele>
        <time>2021-07-27T10:43:37Z</time>
      </trkpt>
      <trkpt lat="43.22768" lon="6.14098">
        <ele>69</ele>
        <time>2021-07-27T10:43:40Z</time>
      </trkpt>
      <trkpt lat="43.22768" lon="6.1409">
        <ele>69</ele>
        <time>2021-07-27T10:43:41Z</time>
      </trkpt>
      <trkpt lat="43.22767" lon="6.14075">
        <ele>68.8</ele>
        <time>2021-07-27T10:43:43Z</time>
      </trkpt>
      <trkpt lat="43.22762" lon="6.14068">
        <ele>68.8</ele>
        <time>2021-07-27T10:43:45Z</time>
      </trkpt>
      <trkpt lat="43.22758" lon="6.14071">
        <ele>68.8</ele>
        <time>2021-07-27T10:43:48Z</time>
      </trkpt>
      <trkpt lat="43.22763" lon="6.14084">
        <ele>68.8</ele>
        <time>2021-07-27T10:43:51Z</time>
      </trkpt>
    </trkseg>
  </trk>
</gpx>